﻿<?xml version="1.0" encoding="utf-8"?><gpx creator="Garmin Desktop App" version="1.1" xsi:schemaLocation="http://www.topografix.com/GPX/1/1 http://www.topografix.com/GPX/1/1/gpx.xsd http://www.garmin.com/xmlschemas/WaypointExtension/v1 http://www8.garmin.com/xmlschemas/WaypointExtensionv1.xsd http://www.garmin.com/xmlschemas/TrackPointExtension/v1 http://www.garmin.com/xmlschemas/TrackPointExtensionv1.xsd http://www.garmin.com/xmlschemas/GpxExtensions/v3 http://www8.garmin.com/xmlschemas/GpxExtensionsv3.xsd http://www.garmin.com/xmlschemas/ActivityExtension/v1 http://www8.garmin.com/xmlschemas/ActivityExtensionv1.xsd http://www.garmin.com/xmlschemas/AdventuresExtensions/v1 http://www8.garmin.com/xmlschemas/AdventuresExtensionv1.xsd http://www.garmin.com/xmlschemas/PressureExtension/v1 http://www.garmin.com/xmlschemas/PressureExtensionv1.xsd http://www.garmin.com/xmlschemas/TripExtensions/v1 http://www.garmin.com/xmlschemas/TripExtensionsv1.xsd http://www.garmin.com/xmlschemas/TripMetaDataExtensions/v1 http://www.garmin.com/xmlschemas/TripMetaDataExtensionsv1.xsd http://www.garmin.com/xmlschemas/ViaPointTransportationModeExtensions/v1 http://www.garmin.com/xmlschemas/ViaPointTransportationModeExtensionsv1.xsd http://www.garmin.com/xmlschemas/CreationTimeExtension/v1 http://www.garmin.com/xmlschemas/CreationTimeExtensionsv1.xsd http://www.garmin.com/xmlschemas/AccelerationExtension/v1 http://www.garmin.com/xmlschemas/AccelerationExtensionv1.xsd http://www.garmin.com/xmlschemas/PowerExtension/v1 http://www.garmin.com/xmlschemas/PowerExtensionv1.xsd http://www.garmin.com/xmlschemas/VideoExtension/v1 http://www.garmin.com/xmlschemas/VideoExtensionv1.xsd" xmlns="http://www.topografix.com/GPX/1/1" xmlns:xsi="http://www.w3.org/2001/XMLSchema-instance" xmlns:wptx1="http://www.garmin.com/xmlschemas/WaypointExtension/v1" xmlns:gpxtrx="http://www.garmin.com/xmlschemas/GpxExtensions/v3" xmlns:gpxtpx="http://www.garmin.com/xmlschemas/TrackPointExtension/v1" xmlns:gpxx="http://www.garmin.com/xmlschemas/GpxExtensions/v3" xmlns:trp="http://www.garmin.com/xmlschemas/TripExtensions/v1" xmlns:adv="http://www.garmin.com/xmlschemas/AdventuresExtensions/v1" xmlns:prs="http://www.garmin.com/xmlschemas/PressureExtension/v1" xmlns:tmd="http://www.garmin.com/xmlschemas/TripMetaDataExtensions/v1" xmlns:vptm="http://www.garmin.com/xmlschemas/ViaPointTransportationModeExtensions/v1" xmlns:ctx="http://www.garmin.com/xmlschemas/CreationTimeExtension/v1" xmlns:gpxacc="http://www.garmin.com/xmlschemas/AccelerationExtension/v1" xmlns:gpxpx="http://www.garmin.com/xmlschemas/PowerExtension/v1" xmlns:vidx1="http://www.garmin.com/xmlschemas/VideoExtension/v1">

  <metadata>
    <link href="http://www.garmin.com">
      <text>Garmin International</text>
    </link>
    <time>2018-08-13T17:07:26Z</time>
    <bounds maxlat="59.548957999795675" maxlon="8.9755969773978" minlat="59.529252983629704" minlon="8.925986001268029" />
  </metadata>

  <trk>
    <name>ACTIVE LOG: 12 AUG 2018 18:25 002</name>
    <extensions>
      <gpxx:TrackExtension>
        <gpxx:DisplayColor>DarkGray</gpxx:DisplayColor>
      </gpxx:TrackExtension>
    </extensions>
    <trkseg>
      <trkpt lat="59.529306963086128" lon="8.973832000046969">
        <ele>561.5234375</ele>
        <time>2018-08-12T16:25:59Z</time>
      </trkpt>
      <trkpt lat="59.529278967529535" lon="8.973906012251973">
        <ele>561.3671875</ele>
        <time>2018-08-12T16:26:16Z</time>
      </trkpt>
      <trkpt lat="59.529257006943226" lon="8.973922021687031">
        <ele>561.015625</ele>
        <time>2018-08-12T16:26:48Z</time>
      </trkpt>
      <trkpt lat="59.529252983629704" lon="8.973954962566495">
        <ele>561.17578125</ele>
        <time>2018-08-12T16:26:55Z</time>
      </trkpt>
      <trkpt lat="59.529419029131532" lon="8.973272005096078">
        <ele>567.15234375</ele>
        <time>2018-08-12T16:27:10Z</time>
      </trkpt>
      <trkpt lat="59.529519025236368" lon="8.972569014877081">
        <ele>568.05859375</ele>
        <time>2018-08-12T16:27:24Z</time>
      </trkpt>
      <trkpt lat="59.52965397387743" lon="8.97164398804307">
        <ele>569.99609375</ele>
        <time>2018-08-12T16:27:51Z</time>
      </trkpt>
      <trkpt lat="59.529663026332855" lon="8.971681036055088">
        <ele>570.41796875</ele>
        <time>2018-08-12T16:28:01Z</time>
      </trkpt>
      <trkpt lat="59.529700996354222" lon="8.971611969172955">
        <ele>571.23046875</ele>
        <time>2018-08-12T16:28:29Z</time>
      </trkpt>
      <trkpt lat="59.529714994132519" lon="8.971595959737897">
        <ele>571.55078125</ele>
        <time>2018-08-12T16:28:30Z</time>
      </trkpt>
      <trkpt lat="59.529770985245705" lon="8.971532005816698">
        <ele>572.75390625</ele>
        <time>2018-08-12T16:28:34Z</time>
      </trkpt>
      <trkpt lat="59.529906017705798" lon="8.971481965854764">
        <ele>575.1328125</ele>
        <time>2018-08-12T16:28:44Z</time>
      </trkpt>
      <trkpt lat="59.529988998547196" lon="8.971498981118202">
        <ele>576.35546875</ele>
        <time>2018-08-12T16:28:51Z</time>
      </trkpt>
      <trkpt lat="59.530160995200276" lon="8.97153502330184">
        <ele>579.375</ele>
        <time>2018-08-12T16:29:03Z</time>
      </trkpt>
      <trkpt lat="59.530244981870055" lon="8.971554972231388">
        <ele>581.5546875</ele>
        <time>2018-08-12T16:29:10Z</time>
      </trkpt>
      <trkpt lat="59.530395017936826" lon="8.971693022176623">
        <ele>586.2421875</ele>
        <time>2018-08-12T16:29:24Z</time>
      </trkpt>
      <trkpt lat="59.530541030690074" lon="8.972000973299146">
        <ele>594.59765625</ele>
        <time>2018-08-12T16:29:38Z</time>
      </trkpt>
      <trkpt lat="59.530599033460021" lon="8.972284030169249">
        <ele>599.2265625</ele>
        <time>2018-08-12T16:29:48Z</time>
      </trkpt>
      <trkpt lat="59.530611019581556" lon="8.972616037353873">
        <ele>602.18359375</ele>
        <time>2018-08-12T16:29:59Z</time>
      </trkpt>
      <trkpt lat="59.53061998821795" lon="8.972694994881749">
        <ele>602.8984375</ele>
        <time>2018-08-12T16:30:01Z</time>
      </trkpt>
      <trkpt lat="59.530572965741158" lon="8.973337970674038">
        <ele>604.7265625</ele>
        <time>2018-08-12T16:30:18Z</time>
      </trkpt>
      <trkpt lat="59.530540024861693" lon="8.97347099147737">
        <ele>605.2578125</ele>
        <time>2018-08-12T16:30:35Z</time>
      </trkpt>
      <trkpt lat="59.530474981293082" lon="8.973885979503393">
        <ele>609.046875</ele>
        <time>2018-08-12T16:31:06Z</time>
      </trkpt>
      <trkpt lat="59.530480010434985" lon="8.974184039980173">
        <ele>612.38671875</ele>
        <time>2018-08-12T16:31:17Z</time>
      </trkpt>
      <trkpt lat="59.530524015426636" lon="8.974385960027576">
        <ele>615.22265625</ele>
        <time>2018-08-12T16:31:25Z</time>
      </trkpt>
      <trkpt lat="59.530529966577888" lon="8.974405992776156">
        <ele>615.52734375</ele>
        <time>2018-08-12T16:31:26Z</time>
      </trkpt>
      <trkpt lat="59.530575983226299" lon="8.974518980830908">
        <ele>617.515625</ele>
        <time>2018-08-12T16:31:33Z</time>
      </trkpt>
      <trkpt lat="59.530672039836645" lon="8.974632974714041">
        <ele>621.04296875</ele>
        <time>2018-08-12T16:31:45Z</time>
      </trkpt>
      <trkpt lat="59.53072702512145" lon="8.975110994651914">
        <ele>628.421875</ele>
        <time>2018-08-12T16:32:01Z</time>
      </trkpt>
      <trkpt lat="59.530803970992565" lon="8.975435961037874">
        <ele>635.23828125</ele>
        <time>2018-08-12T16:32:17Z</time>
      </trkpt>
      <trkpt lat="59.530872032046318" lon="8.9755969773978">
        <ele>640.4765625</ele>
        <time>2018-08-12T16:32:29Z</time>
      </trkpt>
      <trkpt lat="59.530958030372858" lon="8.975462028756738">
        <ele>642.6484375</ele>
        <time>2018-08-12T16:32:42Z</time>
      </trkpt>
      <trkpt lat="59.531103037297726" lon="8.975073024630547">
        <ele>641.640625</ele>
        <time>2018-08-12T16:32:58Z</time>
      </trkpt>
      <trkpt lat="59.531180988997221" lon="8.974975040182471">
        <ele>642.3515625</ele>
        <time>2018-08-12T16:33:03Z</time>
      </trkpt>
      <trkpt lat="59.531471002846956" lon="8.974705981090665">
        <ele>646.203125</ele>
        <time>2018-08-12T16:33:22Z</time>
      </trkpt>
      <trkpt lat="59.531553983688354" lon="8.974634986370802">
        <ele>648.47265625</ele>
        <time>2018-08-12T16:33:26Z</time>
      </trkpt>
      <trkpt lat="59.531592959538102" lon="8.974598022177815">
        <ele>649.875</ele>
        <time>2018-08-12T16:33:28Z</time>
      </trkpt>
      <trkpt lat="59.531799992546439" lon="8.974409010261297">
        <ele>658.31640625</ele>
        <time>2018-08-12T16:33:43Z</time>
      </trkpt>
      <trkpt lat="59.531836034730077" lon="8.97437296807766">
        <ele>659.03515625</ele>
        <time>2018-08-12T16:33:50Z</time>
      </trkpt>
      <trkpt lat="59.531999984756112" lon="8.974130982533097">
        <ele>660.578125</ele>
        <time>2018-08-12T16:34:07Z</time>
      </trkpt>
      <trkpt lat="59.532133005559444" lon="8.973901988938451">
        <ele>663</ele>
        <time>2018-08-12T16:34:20Z</time>
      </trkpt>
      <trkpt lat="59.532225038856268" lon="8.973855972290039">
        <ele>666.37109375</ele>
        <time>2018-08-12T16:34:29Z</time>
      </trkpt>
      <trkpt lat="59.532332997769117" lon="8.973815990611911">
        <ele>670.2265625</ele>
        <time>2018-08-12T16:34:41Z</time>
      </trkpt>
      <trkpt lat="59.532417990267277" lon="8.973768968135119">
        <ele>673.50390625</ele>
        <time>2018-08-12T16:34:51Z</time>
      </trkpt>
      <trkpt lat="59.532550005242229" lon="8.973505022004247">
        <ele>674.96484375</ele>
        <time>2018-08-12T16:35:07Z</time>
      </trkpt>
      <trkpt lat="59.532568026334047" lon="8.973484989255667">
        <ele>675.23046875</ele>
        <time>2018-08-12T16:35:09Z</time>
      </trkpt>
      <trkpt lat="59.532658969983459" lon="8.973322967067361">
        <ele>677.0234375</ele>
        <time>2018-08-12T16:35:23Z</time>
      </trkpt>
      <trkpt lat="59.532770030200481" lon="8.973210984840989">
        <ele>682.69921875</ele>
        <time>2018-08-12T16:35:37Z</time>
      </trkpt>
      <trkpt lat="59.532886035740376" lon="8.973133033141494">
        <ele>689.5078125</ele>
        <time>2018-08-12T16:35:47Z</time>
      </trkpt>
      <trkpt lat="59.532900033518672" lon="8.97310696542263">
        <ele>690.375</ele>
        <time>2018-08-12T16:35:49Z</time>
      </trkpt>
      <trkpt lat="59.532960969954729" lon="8.973002023994923">
        <ele>694.16015625</ele>
        <time>2018-08-12T16:35:57Z</time>
      </trkpt>
      <trkpt lat="59.533037999644876" lon="8.973091039806604">
        <ele>699.99609375</ele>
        <time>2018-08-12T16:36:10Z</time>
      </trkpt>
      <trkpt lat="59.533045962452888" lon="8.973085004836321">
        <ele>700.51171875</ele>
        <time>2018-08-12T16:36:11Z</time>
      </trkpt>
      <trkpt lat="59.533107988536358" lon="8.972990037873387">
        <ele>704.0546875</ele>
        <time>2018-08-12T16:36:19Z</time>
      </trkpt>
      <trkpt lat="59.533221982419491" lon="8.972875038161874">
        <ele>710.26953125</ele>
        <time>2018-08-12T16:36:33Z</time>
      </trkpt>
      <trkpt lat="59.533289037644863" lon="8.972635986283422">
        <ele>709.38671875</ele>
        <time>2018-08-12T16:36:50Z</time>
      </trkpt>
      <trkpt lat="59.53330697491765" lon="8.972593992948532">
        <ele>709.625</ele>
        <time>2018-08-12T16:36:53Z</time>
      </trkpt>
      <trkpt lat="59.533462040126324" lon="8.972152015194297">
        <ele>709.7109375</ele>
        <time>2018-08-12T16:37:13Z</time>
      </trkpt>
      <trkpt lat="59.533524988219142" lon="8.972055958583951">
        <ele>712.0234375</ele>
        <time>2018-08-12T16:37:19Z</time>
      </trkpt>
      <trkpt lat="59.533704025670886" lon="8.97168799303472">
        <ele>717.23828125</ele>
        <time>2018-08-12T16:37:41Z</time>
      </trkpt>
      <trkpt lat="59.53377703204751" lon="8.971337964758277">
        <ele>717.06640625</ele>
        <time>2018-08-12T16:37:54Z</time>
      </trkpt>
      <trkpt lat="59.53390896320343" lon="8.970965975895524">
        <ele>724.0078125</ele>
        <time>2018-08-12T16:38:19Z</time>
      </trkpt>
      <trkpt lat="59.533966965973377" lon="8.970735976472497">
        <ele>726.73828125</ele>
        <time>2018-08-12T16:38:33Z</time>
      </trkpt>
      <trkpt lat="59.534076014533639" lon="8.970239013433456">
        <ele>728.0625</ele>
        <time>2018-08-12T16:38:52Z</time>
      </trkpt>
      <trkpt lat="59.534122031182051" lon="8.969812961295247">
        <ele>725.56640625</ele>
        <time>2018-08-12T16:39:09Z</time>
      </trkpt>
      <trkpt lat="59.534199982881546" lon="8.96940995939076">
        <ele>725.1015625</ele>
        <time>2018-08-12T16:39:28Z</time>
      </trkpt>
      <trkpt lat="59.534234013408422" lon="8.969285991042852">
        <ele>725.5625</ele>
        <time>2018-08-12T16:39:32Z</time>
      </trkpt>
      <trkpt lat="59.534318000078201" lon="8.969198986887932">
        <ele>728.8984375</ele>
        <time>2018-08-12T16:39:43Z</time>
      </trkpt>
      <trkpt lat="59.53437801450491" lon="8.969125980511308">
        <ele>730.73828125</ele>
        <time>2018-08-12T16:39:50Z</time>
      </trkpt>
      <trkpt lat="59.534474993124604" lon="8.968916013836861">
        <ele>732.93359375</ele>
        <time>2018-08-12T16:40:03Z</time>
      </trkpt>
      <trkpt lat="59.534581024199724" lon="8.968575960025191">
        <ele>736.80078125</ele>
        <time>2018-08-12T16:40:20Z</time>
      </trkpt>
      <trkpt lat="59.534687977284193" lon="8.968534972518683">
        <ele>740.05078125</ele>
        <time>2018-08-12T16:40:32Z</time>
      </trkpt>
      <trkpt lat="59.534810017794371" lon="8.968466995283961">
        <ele>743.46484375</ele>
        <time>2018-08-12T16:40:44Z</time>
      </trkpt>
      <trkpt lat="59.534877995029092" lon="8.968429025262594">
        <ele>744.6640625</ele>
        <time>2018-08-12T16:40:53Z</time>
      </trkpt>
      <trkpt lat="59.534949995577335" lon="8.968349983915687">
        <ele>745.1328125</ele>
        <time>2018-08-12T16:41:00Z</time>
      </trkpt>
      <trkpt lat="59.535084022209048" lon="8.968267003074288">
        <ele>746.4375</ele>
        <time>2018-08-12T16:41:13Z</time>
      </trkpt>
      <trkpt lat="59.535173960030079" lon="8.968300027772784">
        <ele>748.0234375</ele>
        <time>2018-08-12T16:41:20Z</time>
      </trkpt>
      <trkpt lat="59.535430027171969" lon="8.968337997794151">
        <ele>752.328125</ele>
        <time>2018-08-12T16:41:40Z</time>
      </trkpt>
      <trkpt lat="59.535547960549593" lon="8.968523992225528">
        <ele>756.7421875</ele>
        <time>2018-08-12T16:41:52Z</time>
      </trkpt>
      <trkpt lat="59.535557013005018" lon="8.968538995832205">
        <ele>757.10546875</ele>
        <time>2018-08-12T16:41:53Z</time>
      </trkpt>
      <trkpt lat="59.535681987181306" lon="8.96867603994906">
        <ele>761.44140625</ele>
        <time>2018-08-12T16:42:08Z</time>
      </trkpt>
      <trkpt lat="59.535751976072788" lon="8.968869997188449">
        <ele>766.02734375</ele>
        <time>2018-08-12T16:42:23Z</time>
      </trkpt>
      <trkpt lat="59.535803021863103" lon="8.969018021598458">
        <ele>769.3671875</ele>
        <time>2018-08-12T16:42:36Z</time>
      </trkpt>
      <trkpt lat="59.535924978554249" lon="8.969200998544693">
        <ele>775.19140625</ele>
        <time>2018-08-12T16:42:52Z</time>
      </trkpt>
      <trkpt lat="59.536023968830705" lon="8.969262018799782">
        <ele>777.94140625</ele>
        <time>2018-08-12T16:43:04Z</time>
      </trkpt>
      <trkpt lat="59.536129999905825" lon="8.969278028234839">
        <ele>779.875</ele>
        <time>2018-08-12T16:43:17Z</time>
      </trkpt>
      <trkpt lat="59.536231001839042" lon="8.969282973557711">
        <ele>781.5703125</ele>
        <time>2018-08-12T16:43:30Z</time>
      </trkpt>
      <trkpt lat="59.536303002387285" lon="8.969352962449193">
        <ele>783.48828125</ele>
        <time>2018-08-12T16:43:40Z</time>
      </trkpt>
      <trkpt lat="59.536329992115498" lon="8.969524959102273">
        <ele>785.5234375</ele>
        <time>2018-08-12T16:43:48Z</time>
      </trkpt>
      <trkpt lat="59.536453960463405" lon="8.969754036515951">
        <ele>789.69921875</ele>
        <time>2018-08-12T16:44:13Z</time>
      </trkpt>
      <trkpt lat="59.536479022353888" lon="8.969753030687571">
        <ele>789.99609375</ele>
        <time>2018-08-12T16:44:39Z</time>
      </trkpt>
      <trkpt lat="59.536669962108135" lon="8.969712965190411">
        <ele>793.49609375</ele>
        <time>2018-08-12T16:44:57Z</time>
      </trkpt>
      <trkpt lat="59.53674104064703" lon="8.969616992399097">
        <ele>794.71875</ele>
        <time>2018-08-12T16:45:19Z</time>
      </trkpt>
      <trkpt lat="59.536755960434675" lon="8.969627972692251">
        <ele>795.12109375</ele>
        <time>2018-08-12T16:46:02Z</time>
      </trkpt>
      <trkpt lat="59.536810023710132" lon="8.969625039026141">
        <ele>796.984375</ele>
        <time>2018-08-12T16:46:34Z</time>
      </trkpt>
      <trkpt lat="59.536789990961552" lon="8.969609029591084">
        <ele>796.09375</ele>
        <time>2018-08-12T16:46:57Z</time>
      </trkpt>
      <trkpt lat="59.536841036751866" lon="8.969619004055858">
        <ele>798.30859375</ele>
        <time>2018-08-12T16:47:09Z</time>
      </trkpt>
      <trkpt lat="59.536848999559879" lon="8.969612969085574">
        <ele>798.6484375</ele>
        <time>2018-08-12T16:47:26Z</time>
      </trkpt>
      <trkpt lat="59.53691597096622" lon="8.969588996842504">
        <ele>801.56640625</ele>
        <time>2018-08-12T16:47:45Z</time>
      </trkpt>
      <trkpt lat="59.537123003974557" lon="8.969519007951021">
        <ele>810.5</ele>
        <time>2018-08-12T16:48:10Z</time>
      </trkpt>
      <trkpt lat="59.53712903894484" lon="8.969526970759034">
        <ele>810.6953125</ele>
        <time>2018-08-12T16:48:26Z</time>
      </trkpt>
      <trkpt lat="59.537230962887406" lon="8.969631996005774">
        <ele>813.91015625</ele>
        <time>2018-08-12T16:48:34Z</time>
      </trkpt>
      <trkpt lat="59.537295000627637" lon="8.969702990725637">
        <ele>815.80859375</ele>
        <time>2018-08-12T16:48:38Z</time>
      </trkpt>
      <trkpt lat="59.53730002976954" lon="8.969706008210778">
        <ele>815.96875</ele>
        <time>2018-08-12T16:48:39Z</time>
      </trkpt>
      <trkpt lat="59.537306986749172" lon="8.969650017097592">
        <ele>816.57421875</ele>
        <time>2018-08-12T16:48:50Z</time>
      </trkpt>
      <trkpt lat="59.537354009225965" lon="8.969561001285911">
        <ele>818.51171875</ele>
        <time>2018-08-12T16:49:01Z</time>
      </trkpt>
      <trkpt lat="59.537422992289066" lon="8.969563012942672">
        <ele>819.66796875</ele>
        <time>2018-08-12T16:49:11Z</time>
      </trkpt>
      <trkpt lat="59.537530029192567" lon="8.969660997390747">
        <ele>821.1328125</ele>
        <time>2018-08-12T16:49:24Z</time>
      </trkpt>
      <trkpt lat="59.537643017247319" lon="8.969769962131977">
        <ele>823.19140625</ele>
        <time>2018-08-12T16:49:37Z</time>
      </trkpt>
      <trkpt lat="59.537672018632293" lon="8.969712965190411">
        <ele>824.06640625</ele>
        <time>2018-08-12T16:49:45Z</time>
      </trkpt>
      <trkpt lat="59.537719041109085" lon="8.969681030139327">
        <ele>825.35546875</ele>
        <time>2018-08-12T16:49:50Z</time>
      </trkpt>
      <trkpt lat="59.537777965888381" lon="8.969650017097592">
        <ele>826.9609375</ele>
        <time>2018-08-12T16:50:02Z</time>
      </trkpt>
      <trkpt lat="59.537808978930116" lon="8.969561001285911">
        <ele>828.02734375</ele>
        <time>2018-08-12T16:50:15Z</time>
      </trkpt>
      <trkpt lat="59.537891959771514" lon="8.969572987407446">
        <ele>830.17578125</ele>
        <time>2018-08-12T16:50:28Z</time>
      </trkpt>
      <trkpt lat="59.537922972813249" lon="8.969582039862871">
        <ele>831.1796875</ele>
        <time>2018-08-12T16:50:32Z</time>
      </trkpt>
      <trkpt lat="59.537992961704731" lon="8.969421023502946">
        <ele>833.8515625</ele>
        <time>2018-08-12T16:50:42Z</time>
      </trkpt>
      <trkpt lat="59.538015006110072" lon="8.96919303573668">
        <ele>834.82421875</ele>
        <time>2018-08-12T16:50:54Z</time>
      </trkpt>
      <trkpt lat="59.538035038858652" lon="8.969111982733011">
        <ele>835.33203125</ele>
        <time>2018-08-12T16:51:08Z</time>
      </trkpt>
      <trkpt lat="59.538036966696382" lon="8.96902003325522">
        <ele>835.40234375</ele>
        <time>2018-08-12T16:51:18Z</time>
      </trkpt>
      <trkpt lat="59.538035960868001" lon="8.969024978578091">
        <ele>835.3828125</ele>
        <time>2018-08-12T16:51:41Z</time>
      </trkpt>
      <trkpt lat="59.538039984181523" lon="8.968927999958396">
        <ele>835.48828125</ele>
        <time>2018-08-12T16:51:54Z</time>
      </trkpt>
      <trkpt lat="59.538039984181523" lon="8.968930011615157">
        <ele>835.48828125</ele>
        <time>2018-08-12T16:52:30Z</time>
      </trkpt>
      <trkpt lat="59.5380549877882" lon="8.968874020501971">
        <ele>835.7578125</ele>
        <time>2018-08-12T16:52:41Z</time>
      </trkpt>
      <trkpt lat="59.538127994164824" lon="8.968754997476935">
        <ele>836.9453125</ele>
        <time>2018-08-12T16:52:53Z</time>
      </trkpt>
      <trkpt lat="59.538123970851302" lon="8.968762960284948">
        <ele>836.8828125</ele>
        <time>2018-08-12T16:53:09Z</time>
      </trkpt>
      <trkpt lat="59.538136962801218" lon="8.968748962506652">
        <ele>837.0859375</ele>
        <time>2018-08-12T16:53:34Z</time>
      </trkpt>
      <trkpt lat="59.538285993039608" lon="8.9686359744519">
        <ele>839.89453125</ele>
        <time>2018-08-12T16:53:43Z</time>
      </trkpt>
      <trkpt lat="59.538351958617568" lon="8.968417039141059">
        <ele>840.68359375</ele>
        <time>2018-08-12T16:53:51Z</time>
      </trkpt>
      <trkpt lat="59.538357993587852" lon="8.968388959765434">
        <ele>840.73046875</ele>
        <time>2018-08-12T16:53:52Z</time>
      </trkpt>
      <trkpt lat="59.538406021893024" lon="8.968314025551081">
        <ele>841.39453125</ele>
        <time>2018-08-12T16:53:57Z</time>
      </trkpt>
      <trkpt lat="59.53848397359252" lon="8.968186033889651">
        <ele>842.76171875</ele>
        <time>2018-08-12T16:54:10Z</time>
      </trkpt>
      <trkpt lat="59.53857097774744" lon="8.968080002814531">
        <ele>845.10546875</ele>
        <time>2018-08-12T16:54:20Z</time>
      </trkpt>
      <trkpt lat="59.538658987730742" lon="8.967872969806194">
        <ele>847.6171875</ele>
        <time>2018-08-12T16:54:29Z</time>
      </trkpt>
      <trkpt lat="59.538674997165799" lon="8.967825025320053">
        <ele>848.03515625</ele>
        <time>2018-08-12T17:00:25Z</time>
      </trkpt>
      <trkpt lat="59.538722019642591" lon="8.967751013115048">
        <ele>849.2890625</ele>
        <time>2018-08-12T17:06:05Z</time>
      </trkpt>
      <trkpt lat="59.538740962743759" lon="8.967704996466637">
        <ele>849.80078125</ele>
        <time>2018-08-12T17:06:12Z</time>
      </trkpt>
      <trkpt lat="59.53873903490603" lon="8.967709019780159">
        <ele>849.75</ele>
        <time>2018-08-12T17:06:28Z</time>
      </trkpt>
      <trkpt lat="59.53874004073441" lon="8.967712037265301">
        <ele>849.78515625</ele>
        <time>2018-08-12T17:08:03Z</time>
      </trkpt>
      <trkpt lat="59.538740962743759" lon="8.967714970931411">
        <ele>849.81640625</ele>
        <time>2018-08-12T17:08:38Z</time>
      </trkpt>
      <trkpt lat="59.538748003542423" lon="8.967720000073314">
        <ele>850.03125</ele>
        <time>2018-08-12T17:09:20Z</time>
      </trkpt>
      <trkpt lat="59.538753032684326" lon="8.967701978981495">
        <ele>850.16015625</ele>
        <time>2018-08-12T17:09:38Z</time>
      </trkpt>
      <trkpt lat="59.538759989663959" lon="8.967695022001863">
        <ele>850.35546875</ele>
        <time>2018-08-12T17:09:59Z</time>
      </trkpt>
      <trkpt lat="59.538760995492339" lon="8.967697033658624">
        <ele>850.38671875</ele>
        <time>2018-08-12T17:10:38Z</time>
      </trkpt>
      <trkpt lat="59.538797037675977" lon="8.967567030340433">
        <ele>851.15234375</ele>
        <time>2018-08-12T17:13:16Z</time>
      </trkpt>
      <trkpt lat="59.538789996877313" lon="8.967335019260645">
        <ele>849.99609375</ele>
        <time>2018-08-12T17:13:21Z</time>
      </trkpt>
      <trkpt lat="59.53882603906095" lon="8.967210967093706">
        <ele>850.421875</ele>
        <time>2018-08-12T17:13:27Z</time>
      </trkpt>
      <trkpt lat="59.53887197189033" lon="8.967160005122423">
        <ele>851.59375</ele>
        <time>2018-08-12T17:13:33Z</time>
      </trkpt>
      <trkpt lat="59.539017984643579" lon="8.967097979038954">
        <ele>855.96484375</ele>
        <time>2018-08-12T17:13:44Z</time>
      </trkpt>
      <trkpt lat="59.539133990183473" lon="8.96704500541091">
        <ele>859.48046875</ele>
        <time>2018-08-12T17:13:55Z</time>
      </trkpt>
      <trkpt lat="59.539189981296659" lon="8.966983985155821">
        <ele>861.34375</ele>
        <time>2018-08-12T17:14:05Z</time>
      </trkpt>
      <trkpt lat="59.539262987673283" lon="8.966964958235622">
        <ele>863.67578125</ele>
        <time>2018-08-12T17:14:15Z</time>
      </trkpt>
      <trkpt lat="59.539325013756752" lon="8.966931011527777">
        <ele>865.3984375</ele>
        <time>2018-08-12T17:14:24Z</time>
      </trkpt>
      <trkpt lat="59.539353009313345" lon="8.966898992657661">
        <ele>866.16015625</ele>
        <time>2018-08-12T17:14:28Z</time>
      </trkpt>
      <trkpt lat="59.539358038455248" lon="8.966805031523109">
        <ele>866.421875</ele>
        <time>2018-08-12T17:14:36Z</time>
      </trkpt>
      <trkpt lat="59.539378993213177" lon="8.96683101542294">
        <ele>866.9296875</ele>
        <time>2018-08-12T17:14:41Z</time>
      </trkpt>
      <trkpt lat="59.539453005418181" lon="8.966937968507409">
        <ele>868.66796875</ele>
        <time>2018-08-12T17:14:52Z</time>
      </trkpt>
      <trkpt lat="59.539526011794806" lon="8.967013992369175">
        <ele>870.3828125</ele>
        <time>2018-08-12T17:14:59Z</time>
      </trkpt>
      <trkpt lat="59.539570016786456" lon="8.967079035937786">
        <ele>870.78125</ele>
        <time>2018-08-12T17:15:04Z</time>
      </trkpt>
      <trkpt lat="59.53968602232635" lon="8.967094961553812">
        <ele>872.28125</ele>
        <time>2018-08-12T17:15:13Z</time>
      </trkpt>
      <trkpt lat="59.539778977632523" lon="8.967320015653968">
        <ele>872.1328125</ele>
        <time>2018-08-12T17:15:21Z</time>
      </trkpt>
      <trkpt lat="59.539894983172417" lon="8.967556972056627">
        <ele>873.45703125</ele>
        <time>2018-08-12T17:15:31Z</time>
      </trkpt>
      <trkpt lat="59.539904035627842" lon="8.967555966228247">
        <ele>873.5703125</ele>
        <time>2018-08-12T17:15:32Z</time>
      </trkpt>
      <trkpt lat="59.54000998288393" lon="8.967468040063977">
        <ele>875.1953125</ele>
        <time>2018-08-12T17:15:39Z</time>
      </trkpt>
      <trkpt lat="59.539988022297621" lon="8.967251032590866">
        <ele>875.6640625</ele>
        <time>2018-08-12T17:15:45Z</time>
      </trkpt>
      <trkpt lat="59.539973018690944" lon="8.967149024829269">
        <ele>875.85546875</ele>
        <time>2018-08-12T17:15:52Z</time>
      </trkpt>
      <trkpt lat="59.539876040071249" lon="8.966866973787546">
        <ele>875.21875</ele>
        <time>2018-08-12T17:16:00Z</time>
      </trkpt>
      <trkpt lat="59.539911998435855" lon="8.966535972431302">
        <ele>876.28125</ele>
        <time>2018-08-12T17:16:08Z</time>
      </trkpt>
      <trkpt lat="59.539991039782763" lon="8.966477969661355">
        <ele>877.23828125</ele>
        <time>2018-08-12T17:16:15Z</time>
      </trkpt>
      <trkpt lat="59.539991961792111" lon="8.966521974653006">
        <ele>877.12890625</ele>
        <time>2018-08-12T17:16:26Z</time>
      </trkpt>
      <trkpt lat="59.540026998147368" lon="8.966492973268032">
        <ele>877.5546875</ele>
        <time>2018-08-12T17:16:37Z</time>
      </trkpt>
      <trkpt lat="59.540023980662227" lon="8.966500014066696">
        <ele>877.50390625</ele>
        <time>2018-08-12T17:16:50Z</time>
      </trkpt>
      <trkpt lat="59.540023980662227" lon="8.966513006016612">
        <ele>877.47265625</ele>
        <time>2018-08-12T17:17:14Z</time>
      </trkpt>
      <trkpt lat="59.540024986490607" lon="8.966513006016612">
        <ele>877.48046875</ele>
        <time>2018-08-12T17:17:44Z</time>
      </trkpt>
      <trkpt lat="59.540025992318988" lon="8.966510994359851">
        <ele>877.49609375</ele>
        <time>2018-08-12T17:18:28Z</time>
      </trkpt>
      <trkpt lat="59.540071003139019" lon="8.966438993811607">
        <ele>878.1640625</ele>
        <time>2018-08-12T17:18:45Z</time>
      </trkpt>
      <trkpt lat="59.540067985653877" lon="8.966438993811607">
        <ele>878.1328125</ele>
        <time>2018-08-12T17:18:57Z</time>
      </trkpt>
      <trkpt lat="59.540105033665895" lon="8.966447962448001">
        <ele>878.46484375</ele>
        <time>2018-08-12T17:19:10Z</time>
      </trkpt>
      <trkpt lat="59.540103022009134" lon="8.966445028781891">
        <ele>878.453125</ele>
        <time>2018-08-12T17:19:30Z</time>
      </trkpt>
      <trkpt lat="59.540204023942351" lon="8.96640102379024">
        <ele>879.390625</ele>
        <time>2018-08-12T17:23:09Z</time>
      </trkpt>
      <trkpt lat="59.540289016440511" lon="8.966327011585236">
        <ele>880.2890625</ele>
        <time>2018-08-12T17:23:13Z</time>
      </trkpt>
      <trkpt lat="59.540488002821803" lon="8.966243024915457">
        <ele>881.47265625</ele>
        <time>2018-08-12T17:23:20Z</time>
      </trkpt>
      <trkpt lat="59.540521027520299" lon="8.966252999380231">
        <ele>881.5</ele>
        <time>2018-08-12T17:23:22Z</time>
      </trkpt>
      <trkpt lat="59.540649019181728" lon="8.966323994100094">
        <ele>881.6015625</ele>
        <time>2018-08-12T17:23:31Z</time>
      </trkpt>
      <trkpt lat="59.540787991136312" lon="8.966273032128811">
        <ele>881.55859375</ele>
        <time>2018-08-12T17:23:38Z</time>
      </trkpt>
      <trkpt lat="59.540934003889561" lon="8.965982012450695">
        <ele>881.953125</ele>
        <time>2018-08-12T17:23:48Z</time>
      </trkpt>
      <trkpt lat="59.541067024692893" lon="8.965588985010982">
        <ele>883.69921875</ele>
        <time>2018-08-12T17:23:57Z</time>
      </trkpt>
      <trkpt lat="59.541141958907247" lon="8.965154970064759">
        <ele>888.01171875</ele>
        <time>2018-08-12T17:24:08Z</time>
      </trkpt>
      <trkpt lat="59.541204990819097" lon="8.964963024482131">
        <ele>890.17578125</ele>
        <time>2018-08-12T17:24:16Z</time>
      </trkpt>
      <trkpt lat="59.541202979162335" lon="8.96479002200067">
        <ele>891.02734375</ele>
        <time>2018-08-12T17:24:24Z</time>
      </trkpt>
      <trkpt lat="59.541246984153986" lon="8.964637974277139">
        <ele>892.00390625</ele>
        <time>2018-08-12T17:24:33Z</time>
      </trkpt>
      <trkpt lat="59.541285960003734" lon="8.964631017297506">
        <ele>892.33984375</ele>
        <time>2018-08-12T17:24:38Z</time>
      </trkpt>
      <trkpt lat="59.541313033550978" lon="8.964560022577643">
        <ele>892.84375</ele>
        <time>2018-08-12T17:24:45Z</time>
      </trkpt>
      <trkpt lat="59.541356032714248" lon="8.964317031204701">
        <ele>894.74609375</ele>
        <time>2018-08-12T17:24:55Z</time>
      </trkpt>
      <trkpt lat="59.541431972756982" lon="8.964097006246448">
        <ele>897.77734375</ele>
        <time>2018-08-12T17:25:03Z</time>
      </trkpt>
      <trkpt lat="59.541430966928601" lon="8.964004972949624">
        <ele>898.69921875</ele>
        <time>2018-08-12T17:25:07Z</time>
      </trkpt>
      <trkpt lat="59.541440019384027" lon="8.963644970208406">
        <ele>900.9765625</ele>
        <time>2018-08-12T17:25:18Z</time>
      </trkpt>
      <trkpt lat="59.541498022153974" lon="8.963244985789061">
        <ele>904.58984375</ele>
        <time>2018-08-12T17:25:30Z</time>
      </trkpt>
      <trkpt lat="59.541527023538947" lon="8.963151024654508">
        <ele>906.10546875</ele>
        <time>2018-08-12T17:25:33Z</time>
      </trkpt>
      <trkpt lat="59.541532974690199" lon="8.962886994704604">
        <ele>908.328125</ele>
        <time>2018-08-12T17:25:41Z</time>
      </trkpt>
      <trkpt lat="59.541560970246792" lon="8.962630005553365">
        <ele>910.51171875</ele>
        <time>2018-08-12T17:25:49Z</time>
      </trkpt>
      <trkpt lat="59.541619978845119" lon="8.962519029155374">
        <ele>912.13671875</ele>
        <time>2018-08-12T17:25:57Z</time>
      </trkpt>
      <trkpt lat="59.541611010208726" lon="8.962258016690612">
        <ele>912.75390625</ele>
        <time>2018-08-12T17:26:06Z</time>
      </trkpt>
      <trkpt lat="59.541608998551965" lon="8.962060958147049">
        <ele>913.13671875</ele>
        <time>2018-08-12T17:26:13Z</time>
      </trkpt>
      <trkpt lat="59.541637999936938" lon="8.961726017296314">
        <ele>916.17578125</ele>
        <time>2018-08-12T17:26:26Z</time>
      </trkpt>
      <trkpt lat="59.541654009371996" lon="8.961318992078304">
        <ele>919.53125</ele>
        <time>2018-08-12T17:26:39Z</time>
      </trkpt>
      <trkpt lat="59.541667001321912" lon="8.961141966283321">
        <ele>920.9921875</ele>
        <time>2018-08-12T17:26:45Z</time>
      </trkpt>
      <trkpt lat="59.541662978008389" lon="8.961068037897348">
        <ele>921.4375</ele>
        <time>2018-08-12T17:26:49Z</time>
      </trkpt>
      <trkpt lat="59.541726009920239" lon="8.96096502430737">
        <ele>923.08984375</ele>
        <time>2018-08-12T17:26:55Z</time>
      </trkpt>
      <trkpt lat="59.541745958849788" lon="8.9607959613204">
        <ele>924.90625</ele>
        <time>2018-08-12T17:27:04Z</time>
      </trkpt>
      <trkpt lat="59.541757022961974" lon="8.960545007139444">
        <ele>927.78125</ele>
        <time>2018-08-12T17:27:13Z</time>
      </trkpt>
      <trkpt lat="59.541775966063142" lon="8.960469989106059">
        <ele>929.046875</ele>
        <time>2018-08-12T17:27:17Z</time>
      </trkpt>
      <trkpt lat="59.541766997426748" lon="8.960373010486364">
        <ele>930.0625</ele>
        <time>2018-08-12T17:27:21Z</time>
      </trkpt>
      <trkpt lat="59.54166398383677" lon="8.960047038272023">
        <ele>934.52734375</ele>
        <time>2018-08-12T17:27:32Z</time>
      </trkpt>
      <trkpt lat="59.541624002158642" lon="8.959789965301752">
        <ele>937.58984375</ele>
        <time>2018-08-12T17:27:43Z</time>
      </trkpt>
      <trkpt lat="59.541604975238442" lon="8.959466004744172">
        <ele>940.5390625</ele>
        <time>2018-08-12T17:27:54Z</time>
      </trkpt>
      <trkpt lat="59.541586032137275" lon="8.959133997559547">
        <ele>942.30078125</ele>
        <time>2018-08-12T17:28:05Z</time>
      </trkpt>
      <trkpt lat="59.541602041572332" lon="8.959005000069737">
        <ele>942.33984375</ele>
        <time>2018-08-12T17:28:14Z</time>
      </trkpt>
      <trkpt lat="59.541525011882186" lon="8.958805007860065">
        <ele>944.6171875</ele>
        <time>2018-08-12T17:28:22Z</time>
      </trkpt>
      <trkpt lat="59.541529035195708" lon="8.958714986220002">
        <ele>945.453125</ele>
        <time>2018-08-12T17:28:25Z</time>
      </trkpt>
      <trkpt lat="59.541496010497212" lon="8.958273008465767">
        <ele>950.44921875</ele>
        <time>2018-08-12T17:28:39Z</time>
      </trkpt>
      <trkpt lat="59.541548984125257" lon="8.95800000987947">
        <ele>953.28515625</ele>
        <time>2018-08-12T17:28:50Z</time>
      </trkpt>
      <trkpt lat="59.541583014652133" lon="8.957701027393341">
        <ele>955.96484375</ele>
        <time>2018-08-12T17:29:02Z</time>
      </trkpt>
      <trkpt lat="59.541585026308894" lon="8.957390980795026">
        <ele>958.13671875</ele>
        <time>2018-08-12T17:29:18Z</time>
      </trkpt>
      <trkpt lat="59.541602041572332" lon="8.957235999405384">
        <ele>958.6484375</ele>
        <time>2018-08-12T17:29:31Z</time>
      </trkpt>
      <trkpt lat="59.541622996330261" lon="8.957095015794039">
        <ele>958.88671875</ele>
        <time>2018-08-12T17:29:43Z</time>
      </trkpt>
      <trkpt lat="59.541614027693868" lon="8.956817993894219">
        <ele>957.2890625</ele>
        <time>2018-08-12T17:52:26Z</time>
      </trkpt>
      <trkpt lat="59.541616961359978" lon="8.956791004166007">
        <ele>957.03125</ele>
        <time>2018-08-12T17:53:04Z</time>
      </trkpt>
      <trkpt lat="59.541616039350629" lon="8.956739958375692">
        <ele>956.390625</ele>
        <time>2018-08-12T17:54:04Z</time>
      </trkpt>
      <trkpt lat="59.541645962744951" lon="8.956832997500897">
        <ele>957.078125</ele>
        <time>2018-08-12T17:54:13Z</time>
      </trkpt>
      <trkpt lat="59.541648980230093" lon="8.956849006935954">
        <ele>957.17578125</ele>
        <time>2018-08-12T17:54:14Z</time>
      </trkpt>
      <trkpt lat="59.541752999648452" lon="8.956811958923936">
        <ele>955.7890625</ele>
        <time>2018-08-12T17:54:21Z</time>
      </trkpt>
      <trkpt lat="59.541817037388682" lon="8.956654965877533">
        <ele>952.83203125</ele>
        <time>2018-08-12T17:54:27Z</time>
      </trkpt>
      <trkpt lat="59.541859030723572" lon="8.956283982843161">
        <ele>948.83203125</ele>
        <time>2018-08-12T17:54:40Z</time>
      </trkpt>
      <trkpt lat="59.541846038773656" lon="8.956262022256851">
        <ele>948.98046875</ele>
        <time>2018-08-12T17:54:50Z</time>
      </trkpt>
      <trkpt lat="59.541845032945275" lon="8.956086002290249">
        <ele>946.9609375</ele>
        <time>2018-08-12T17:54:58Z</time>
      </trkpt>
      <trkpt lat="59.541919967159629" lon="8.955699009820819">
        <ele>942.2578125</ele>
        <time>2018-08-12T18:06:29Z</time>
      </trkpt>
      <trkpt lat="59.541956009343266" lon="8.955546962097287">
        <ele>941.41796875</ele>
        <time>2018-08-12T18:06:38Z</time>
      </trkpt>
      <trkpt lat="59.541977969929576" lon="8.955425005406141">
        <ele>941.0234375</ele>
        <time>2018-08-12T18:06:49Z</time>
      </trkpt>
      <trkpt lat="59.541935976594687" lon="8.955155024304986">
        <ele>940.79296875</ele>
        <time>2018-08-12T18:06:56Z</time>
      </trkpt>
      <trkpt lat="59.541970007121563" lon="8.955040024593473">
        <ele>940.78515625</ele>
        <time>2018-08-12T18:07:03Z</time>
      </trkpt>
      <trkpt lat="59.541973024606705" lon="8.954872973263264">
        <ele>940.734375</ele>
        <time>2018-08-12T18:07:15Z</time>
      </trkpt>
      <trkpt lat="59.541975958272815" lon="8.954858975484967">
        <ele>940.73828125</ele>
        <time>2018-08-12T18:07:16Z</time>
      </trkpt>
      <trkpt lat="59.541950980201364" lon="8.954588994383812">
        <ele>940.57421875</ele>
        <time>2018-08-12T18:07:24Z</time>
      </trkpt>
      <trkpt lat="59.541959026828408" lon="8.954263022169471">
        <ele>940.17578125</ele>
        <time>2018-08-12T18:07:34Z</time>
      </trkpt>
      <trkpt lat="59.541877973824739" lon="8.953848034143448">
        <ele>940.12109375</ele>
        <time>2018-08-12T18:07:46Z</time>
      </trkpt>
      <trkpt lat="59.541847966611385" lon="8.953441008925438">
        <ele>939.76953125</ele>
        <time>2018-08-12T18:07:55Z</time>
      </trkpt>
      <trkpt lat="59.541831035166979" lon="8.95284597761929">
        <ele>939.82421875</ele>
        <time>2018-08-12T18:08:06Z</time>
      </trkpt>
      <trkpt lat="59.541806979104877" lon="8.952421015128493">
        <ele>939.88671875</ele>
        <time>2018-08-12T18:08:15Z</time>
      </trkpt>
      <trkpt lat="59.541821982711554" lon="8.952218005433679">
        <ele>939.76171875</ele>
        <time>2018-08-12T18:08:26Z</time>
      </trkpt>
      <trkpt lat="59.541822988539934" lon="8.952183974906802">
        <ele>939.69921875</ele>
        <time>2018-08-12T18:08:28Z</time>
      </trkpt>
      <trkpt lat="59.541822988539934" lon="8.95185699686408">
        <ele>938.8359375</ele>
        <time>2018-08-12T18:08:39Z</time>
      </trkpt>
      <trkpt lat="59.541818965226412" lon="8.951649041846395">
        <ele>938.01953125</ele>
        <time>2018-08-12T18:08:48Z</time>
      </trkpt>
      <trkpt lat="59.541825000196695" lon="8.951638983562589">
        <ele>938.03515625</ele>
        <time>2018-08-12T18:09:00Z</time>
      </trkpt>
      <trkpt lat="59.541881997138262" lon="8.951359027996659">
        <ele>937.21484375</ele>
        <time>2018-08-12T18:09:09Z</time>
      </trkpt>
      <trkpt lat="59.541937988251448" lon="8.950899029150605">
        <ele>932.10546875</ele>
        <time>2018-08-12T18:09:17Z</time>
      </trkpt>
      <trkpt lat="59.542034966871142" lon="8.950556963682175">
        <ele>930.4375</ele>
        <time>2018-08-12T18:09:25Z</time>
      </trkpt>
      <trkpt lat="59.542137980461121" lon="8.950465014204383">
        <ele>931.078125</ele>
        <time>2018-08-12T18:09:31Z</time>
      </trkpt>
      <trkpt lat="59.542201012372971" lon="8.950184974819422">
        <ele>929.6796875</ele>
        <time>2018-08-12T18:09:37Z</time>
      </trkpt>
      <trkpt lat="59.542300002649426" lon="8.949765041470528">
        <ele>926.671875</ele>
        <time>2018-08-12T18:09:46Z</time>
      </trkpt>
      <trkpt lat="59.542320035398006" lon="8.949387017637491">
        <ele>924.21875</ele>
        <time>2018-08-12T18:09:55Z</time>
      </trkpt>
      <trkpt lat="59.542408967390656" lon="8.949013017117977">
        <ele>922.6640625</ele>
        <time>2018-08-12T18:10:04Z</time>
      </trkpt>
      <trkpt lat="59.542506029829383" lon="8.948596017435193">
        <ele>921.046875</ele>
        <time>2018-08-12T18:10:14Z</time>
      </trkpt>
      <trkpt lat="59.542395975440741" lon="8.94835202023387">
        <ele>920.97265625</ele>
        <time>2018-08-12T18:10:21Z</time>
      </trkpt>
      <trkpt lat="59.542347025126219" lon="8.948086984455586">
        <ele>920.74609375</ele>
        <time>2018-08-12T18:10:28Z</time>
      </trkpt>
      <trkpt lat="59.542333027347922" lon="8.947887998074293">
        <ele>920.78125</ele>
        <time>2018-08-12T18:10:35Z</time>
      </trkpt>
      <trkpt lat="59.542277036234736" lon="8.94768800586462">
        <ele>919.25</ele>
        <time>2018-08-12T18:10:42Z</time>
      </trkpt>
      <trkpt lat="59.542354987934232" lon="8.947498993948102">
        <ele>919.1328125</ele>
        <time>2018-08-12T18:10:49Z</time>
      </trkpt>
      <trkpt lat="59.542374014854431" lon="8.947486001998186">
        <ele>919.015625</ele>
        <time>2018-08-12T18:10:50Z</time>
      </trkpt>
      <trkpt lat="59.542434029281139" lon="8.947448031976819">
        <ele>918.6953125</ele>
        <time>2018-08-12T18:10:58Z</time>
      </trkpt>
      <trkpt lat="59.542434029281139" lon="8.947423975914717">
        <ele>918.56640625</ele>
        <time>2018-08-12T18:11:00Z</time>
      </trkpt>
      <trkpt lat="59.54241500236094" lon="8.94727704115212">
        <ele>917.5859375</ele>
        <time>2018-08-12T18:11:04Z</time>
      </trkpt>
      <trkpt lat="59.542448027059436" lon="8.947176039218903">
        <ele>916.69140625</ele>
        <time>2018-08-12T18:11:10Z</time>
      </trkpt>
      <trkpt lat="59.542423970997334" lon="8.946903962641954">
        <ele>913.8046875</ele>
        <time>2018-08-12T18:11:19Z</time>
      </trkpt>
      <trkpt lat="59.542436040937901" lon="8.946899017319083">
        <ele>913.77734375</ele>
        <time>2018-08-12T18:11:21Z</time>
      </trkpt>
      <trkpt lat="59.542524972930551" lon="8.946841014549136">
        <ele>913.37109375</ele>
        <time>2018-08-12T18:11:26Z</time>
      </trkpt>
      <trkpt lat="59.542539976537228" lon="8.946499032899737">
        <ele>909.046875</ele>
        <time>2018-08-12T18:11:34Z</time>
      </trkpt>
      <trkpt lat="59.54254399985075" lon="8.946394007652998">
        <ele>907.5703125</ele>
        <time>2018-08-12T18:11:36Z</time>
      </trkpt>
      <trkpt lat="59.542538970708847" lon="8.946057977154851">
        <ele>902.5703125</ele>
        <time>2018-08-12T18:11:45Z</time>
      </trkpt>
      <trkpt lat="59.542599990963936" lon="8.94562597386539">
        <ele>894.80078125</ele>
        <time>2018-08-12T18:11:55Z</time>
      </trkpt>
      <trkpt lat="59.542826972901821" lon="8.945292038843036">
        <ele>891.78515625</ele>
        <time>2018-08-12T18:12:08Z</time>
      </trkpt>
      <trkpt lat="59.54297399148345" lon="8.945020968094468">
        <ele>883.2578125</ele>
        <time>2018-08-12T18:12:20Z</time>
      </trkpt>
      <trkpt lat="59.542968040332198" lon="8.945031026378274">
        <ele>883.76953125</ele>
        <time>2018-08-12T18:12:35Z</time>
      </trkpt>
      <trkpt lat="59.542967034503818" lon="8.945032032206655">
        <ele>883.828125</ele>
        <time>2018-08-12T18:12:53Z</time>
      </trkpt>
      <trkpt lat="59.542982038110495" lon="8.945017028599978">
        <ele>882.96484375</ele>
        <time>2018-08-12T18:13:07Z</time>
      </trkpt>
      <trkpt lat="59.543112963438034" lon="8.944939998909831">
        <ele>877.70703125</ele>
        <time>2018-08-12T18:13:17Z</time>
      </trkpt>
      <trkpt lat="59.543285965919495" lon="8.94495902583003">
        <ele>874.62109375</ele>
        <time>2018-08-12T18:13:26Z</time>
      </trkpt>
      <trkpt lat="59.543332988396287" lon="8.944934969767928">
        <ele>872.5234375</ele>
        <time>2018-08-12T18:13:32Z</time>
      </trkpt>
      <trkpt lat="59.543426027521491" lon="8.944858023896813">
        <ele>867.4140625</ele>
        <time>2018-08-12T18:13:41Z</time>
      </trkpt>
      <trkpt lat="59.543457962572575" lon="8.944746041670442">
        <ele>862.19921875</ele>
        <time>2018-08-12T18:13:50Z</time>
      </trkpt>
      <trkpt lat="59.543467015028" lon="8.944739000871778">
        <ele>861.54296875</ele>
        <time>2018-08-12T18:13:51Z</time>
      </trkpt>
      <trkpt lat="59.543491993099451" lon="8.944705976173282">
        <ele>859.28515625</ele>
        <time>2018-08-12T18:13:54Z</time>
      </trkpt>
      <trkpt lat="59.543555025011301" lon="8.944697007536888">
        <ele>856.31640625</ele>
        <time>2018-08-12T18:14:04Z</time>
      </trkpt>
      <trkpt lat="59.543569022789598" lon="8.944716034457088">
        <ele>856.32421875</ele>
        <time>2018-08-12T18:14:06Z</time>
      </trkpt>
      <trkpt lat="59.543630965054035" lon="8.944751992821693">
        <ele>854.6796875</ele>
        <time>2018-08-12T18:14:13Z</time>
      </trkpt>
      <trkpt lat="59.543828023597598" lon="8.944804966449738">
        <ele>848.21875</ele>
        <time>2018-08-12T18:14:26Z</time>
      </trkpt>
      <trkpt lat="59.543875968083739" lon="8.944779988378286">
        <ele>846.01171875</ele>
        <time>2018-08-12T18:14:31Z</time>
      </trkpt>
      <trkpt lat="59.543917961418629" lon="8.944696001708508">
        <ele>842.80078125</ele>
        <time>2018-08-12T18:14:38Z</time>
      </trkpt>
      <trkpt lat="59.544061962515116" lon="8.944678986445069">
        <ele>838.31640625</ele>
        <time>2018-08-12T18:14:50Z</time>
      </trkpt>
      <trkpt lat="59.544145027175546" lon="8.944674041122198">
        <ele>836.27734375</ele>
        <time>2018-08-12T18:14:55Z</time>
      </trkpt>
      <trkpt lat="59.544143015518785" lon="8.944520987570286">
        <ele>833.57421875</ele>
        <time>2018-08-12T18:15:00Z</time>
      </trkpt>
      <trkpt lat="59.54404997639358" lon="8.94418403506279">
        <ele>830.375</ele>
        <time>2018-08-12T18:15:10Z</time>
      </trkpt>
      <trkpt lat="59.543914021924138" lon="8.943834006786346">
        <ele>829.1015625</ele>
        <time>2018-08-12T18:15:22Z</time>
      </trkpt>
      <trkpt lat="59.543804973363876" lon="8.943434022367001">
        <ele>827.21875</ele>
        <time>2018-08-12T18:15:32Z</time>
      </trkpt>
      <trkpt lat="59.543774966150522" lon="8.943164041265845">
        <ele>823.0546875</ele>
        <time>2018-08-12T18:15:40Z</time>
      </trkpt>
      <trkpt lat="59.543842021375895" lon="8.942843014374375">
        <ele>816.7109375</ele>
        <time>2018-08-12T18:15:52Z</time>
      </trkpt>
      <trkpt lat="59.54385400749743" lon="8.942817030474544">
        <ele>816.0859375</ele>
        <time>2018-08-12T18:15:53Z</time>
      </trkpt>
      <trkpt lat="59.54383104108274" lon="8.942554006353021">
        <ele>811.7421875</ele>
        <time>2018-08-12T18:15:59Z</time>
      </trkpt>
      <trkpt lat="59.543786030262709" lon="8.942426014691591">
        <ele>809.64453125</ele>
        <time>2018-08-12T18:16:02Z</time>
      </trkpt>
      <trkpt lat="59.543719980865717" lon="8.942189980298281">
        <ele>805.71875</ele>
        <time>2018-08-12T18:16:09Z</time>
      </trkpt>
      <trkpt lat="59.54355401918292" lon="8.94216500222683">
        <ele>805.98046875</ele>
        <time>2018-08-12T18:16:16Z</time>
      </trkpt>
      <trkpt lat="59.543458968400955" lon="8.942113034427166">
        <ele>805.42578125</ele>
        <time>2018-08-12T18:16:24Z</time>
      </trkpt>
      <trkpt lat="59.543463997542858" lon="8.942081015557051">
        <ele>804.8046875</ele>
        <time>2018-08-12T18:16:26Z</time>
      </trkpt>
      <trkpt lat="59.543525017797947" lon="8.941785972565413">
        <ele>797.453125</ele>
        <time>2018-08-12T18:16:34Z</time>
      </trkpt>
      <trkpt lat="59.543672036379576" lon="8.941664015874267">
        <ele>793.52734375</ele>
        <time>2018-08-12T18:16:41Z</time>
      </trkpt>
      <trkpt lat="59.543779995292425" lon="8.941518003121018">
        <ele>789.33203125</ele>
        <time>2018-08-12T18:16:50Z</time>
      </trkpt>
      <trkpt lat="59.543862976133823" lon="8.941341983154416">
        <ele>784.00390625</ele>
        <time>2018-08-12T18:17:02Z</time>
      </trkpt>
      <trkpt lat="59.543914021924138" lon="8.941304013133049">
        <ele>783.078125</ele>
        <time>2018-08-12T18:17:06Z</time>
      </trkpt>
      <trkpt lat="59.544104961678386" lon="8.941254978999496">
        <ele>782.3125</ele>
        <time>2018-08-12T18:17:15Z</time>
      </trkpt>
      <trkpt lat="59.544133963063359" lon="8.941275011748076">
        <ele>782.84375</ele>
        <time>2018-08-12T18:17:22Z</time>
      </trkpt>
      <trkpt lat="59.544289028272033" lon="8.941248022019863">
        <ele>782.55078125</ele>
        <time>2018-08-12T18:17:31Z</time>
      </trkpt>
      <trkpt lat="59.5444340351969" lon="8.941147020086646">
        <ele>781.8125</ele>
        <time>2018-08-12T18:17:39Z</time>
      </trkpt>
      <trkpt lat="59.54454299993813" lon="8.941304013133049">
        <ele>785.74609375</ele>
        <time>2018-08-12T18:17:46Z</time>
      </trkpt>
      <trkpt lat="59.544725976884365" lon="8.941507022827864">
        <ele>789.13671875</ele>
        <time>2018-08-12T18:17:55Z</time>
      </trkpt>
      <trkpt lat="59.544762019068003" lon="8.941591009497643">
        <ele>789.97265625</ele>
        <time>2018-08-12T18:17:58Z</time>
      </trkpt>
      <trkpt lat="59.544894034042954" lon="8.941567037254572">
        <ele>789.6875</ele>
        <time>2018-08-12T18:18:05Z</time>
      </trkpt>
      <trkpt lat="59.545054966583848" lon="8.941550021991134">
        <ele>789.2578125</ele>
        <time>2018-08-12T18:18:14Z</time>
      </trkpt>
      <trkpt lat="59.545285971835256" lon="8.941501993685961">
        <ele>787.9140625</ele>
        <time>2018-08-12T18:18:26Z</time>
      </trkpt>
      <trkpt lat="59.545452017337084" lon="8.941290015354753">
        <ele>784.26953125</ele>
        <time>2018-08-12T18:18:35Z</time>
      </trkpt>
      <trkpt lat="59.545598030090332" lon="8.941044006496668">
        <ele>781.26953125</ele>
        <time>2018-08-12T18:18:44Z</time>
      </trkpt>
      <trkpt lat="59.545729039236903" lon="8.940834039822221">
        <ele>777.98046875</ele>
        <time>2018-08-12T18:18:54Z</time>
      </trkpt>
      <trkpt lat="59.545786958187819" lon="8.940760027617216">
        <ele>776.26953125</ele>
        <time>2018-08-12T18:19:02Z</time>
      </trkpt>
      <trkpt lat="59.545951997861266" lon="8.94081199541688">
        <ele>775.2890625</ele>
        <time>2018-08-12T18:19:09Z</time>
      </trkpt>
      <trkpt lat="59.546054005622864" lon="8.940945016220212">
        <ele>774.60546875</ele>
        <time>2018-08-12T18:19:15Z</time>
      </trkpt>
      <trkpt lat="59.546136986464262" lon="8.941234024241567">
        <ele>775.73046875</ele>
        <time>2018-08-12T18:19:23Z</time>
      </trkpt>
      <trkpt lat="59.54621896147728" lon="8.941580029204488">
        <ele>775.18359375</ele>
        <time>2018-08-12T18:19:33Z</time>
      </trkpt>
      <trkpt lat="59.546317029744387" lon="8.941814973950386">
        <ele>770.8125</ele>
        <time>2018-08-12T18:19:41Z</time>
      </trkpt>
      <trkpt lat="59.546466981992126" lon="8.942001974210143">
        <ele>764.8125</ele>
        <time>2018-08-12T18:19:50Z</time>
      </trkpt>
      <trkpt lat="59.546482991427183" lon="8.942319983616471">
        <ele>766.9609375</ele>
        <time>2018-08-12T18:19:57Z</time>
      </trkpt>
      <trkpt lat="59.546584999188781" lon="8.942631036043167">
        <ele>770.89453125</ele>
        <time>2018-08-12T18:20:05Z</time>
      </trkpt>
      <trkpt lat="59.546750960871577" lon="8.942963965237141">
        <ele>768.609375</ele>
        <time>2018-08-12T18:20:16Z</time>
      </trkpt>
      <trkpt lat="59.546923041343689" lon="8.943295972421765">
        <ele>765.578125</ele>
        <time>2018-08-12T18:20:28Z</time>
      </trkpt>
      <trkpt lat="59.547028988599777" lon="8.943565031513572">
        <ele>764.41015625</ele>
        <time>2018-08-12T18:20:37Z</time>
      </trkpt>
      <trkpt lat="59.547168966382742" lon="8.944006003439426">
        <ele>764.20703125</ele>
        <time>2018-08-12T18:20:50Z</time>
      </trkpt>
      <trkpt lat="59.547269968315959" lon="8.9444649964571">
        <ele>764.609375</ele>
        <time>2018-08-12T18:21:01Z</time>
      </trkpt>
      <trkpt lat="59.547392008826137" lon="8.944520987570286">
        <ele>762.75</ele>
        <time>2018-08-12T18:21:07Z</time>
      </trkpt>
      <trkpt lat="59.547403994947672" lon="8.944505983963609">
        <ele>762.46875</ele>
        <time>2018-08-12T18:21:09Z</time>
      </trkpt>
      <trkpt lat="59.547520000487566" lon="8.944328036159277">
        <ele>759.26171875</ele>
        <time>2018-08-12T18:21:17Z</time>
      </trkpt>
      <trkpt lat="59.547642963007092" lon="8.944253018125892">
        <ele>756.15625</ele>
        <time>2018-08-12T18:21:25Z</time>
      </trkpt>
      <trkpt lat="59.547688979655504" lon="8.943952023983002">
        <ele>751.921875</ele>
        <time>2018-08-12T18:21:36Z</time>
      </trkpt>
      <trkpt lat="59.54770096577704" lon="8.943764017894864">
        <ele>749.79296875</ele>
        <time>2018-08-12T18:21:44Z</time>
      </trkpt>
      <trkpt lat="59.547811020165682" lon="8.943716995418072">
        <ele>746.32421875</ele>
        <time>2018-08-12T18:21:52Z</time>
      </trkpt>
      <trkpt lat="59.547843961045146" lon="8.943678019568324">
        <ele>745.06640625</ele>
        <time>2018-08-12T18:21:55Z</time>
      </trkpt>
      <trkpt lat="59.547895006835461" lon="8.943609036505222">
        <ele>743.109375</ele>
        <time>2018-08-12T18:22:01Z</time>
      </trkpt>
      <trkpt lat="59.548040013760328" lon="8.943499987944961">
        <ele>738.77734375</ele>
        <time>2018-08-12T18:22:14Z</time>
      </trkpt>
      <trkpt lat="59.548174040392041" lon="8.943341989070177">
        <ele>735.01953125</ele>
        <time>2018-08-12T18:22:21Z</time>
      </trkpt>
      <trkpt lat="59.54832399263978" lon="8.943248027935624">
        <ele>733.25390625</ele>
        <time>2018-08-12T18:22:30Z</time>
      </trkpt>
      <trkpt lat="59.548447960987687" lon="8.943152977153659">
        <ele>731.98828125</ele>
        <time>2018-08-12T18:22:41Z</time>
      </trkpt>
      <trkpt lat="59.548653988167644" lon="8.943104026839137">
        <ele>729.3359375</ele>
        <time>2018-08-12T18:22:52Z</time>
      </trkpt>
      <trkpt lat="59.548820033669472" lon="8.943104026839137">
        <ele>727.64453125</ele>
        <time>2018-08-12T18:23:01Z</time>
      </trkpt>
      <trkpt lat="59.548862027004361" lon="8.943000007420778">
        <ele>726.8671875</ele>
        <time>2018-08-12T18:23:06Z</time>
      </trkpt>
      <trkpt lat="59.548869989812374" lon="8.942978968843818">
        <ele>726.70703125</ele>
        <time>2018-08-12T18:23:07Z</time>
      </trkpt>
      <trkpt lat="59.548951964825392" lon="8.942871009930968">
        <ele>725.4609375</ele>
        <time>2018-08-12T18:23:16Z</time>
      </trkpt>
      <trkpt lat="59.548948025330901" lon="8.942841002717614">
        <ele>725.34765625</ele>
        <time>2018-08-12T18:23:27Z</time>
      </trkpt>
      <trkpt lat="59.548957999795675" lon="8.942889031022787">
        <ele>725.4921875</ele>
        <time>2018-08-12T18:23:39Z</time>
      </trkpt>
      <trkpt lat="59.548941990360618" lon="8.942887019366026">
        <ele>725.640625</ele>
        <time>2018-08-12T18:23:54Z</time>
      </trkpt>
      <trkpt lat="59.548938972875476" lon="8.942785011604428">
        <ele>725.15625</ele>
        <time>2018-08-12T18:24:05Z</time>
      </trkpt>
      <trkpt lat="59.548944002017379" lon="8.94270203076303">
        <ele>724.68359375</ele>
        <time>2018-08-12T18:29:04Z</time>
      </trkpt>
      <trkpt lat="59.548891028389335" lon="8.942576972767711">
        <ele>724.671875</ele>
        <time>2018-08-12T18:29:11Z</time>
      </trkpt>
      <trkpt lat="59.548859009519219" lon="8.942497009411454">
        <ele>724.62109375</ele>
        <time>2018-08-12T18:29:23Z</time>
      </trkpt>
      <trkpt lat="59.548856997862458" lon="8.942504972219467">
        <ele>724.6875</ele>
        <time>2018-08-12T18:29:37Z</time>
      </trkpt>
      <trkpt lat="59.548779968172312" lon="8.942289976403117">
        <ele>724.44140625</ele>
        <time>2018-08-12T18:29:44Z</time>
      </trkpt>
      <trkpt lat="59.548648959025741" lon="8.941897032782435">
        <ele>724.0859375</ele>
        <time>2018-08-12T18:29:55Z</time>
      </trkpt>
      <trkpt lat="59.548517027869821" lon="8.941530995070934">
        <ele>724.15234375</ele>
        <time>2018-08-12T18:30:06Z</time>
      </trkpt>
      <trkpt lat="59.548330027610064" lon="8.941163029521704">
        <ele>723.87890625</ele>
        <time>2018-08-12T18:30:16Z</time>
      </trkpt>
      <trkpt lat="59.548196000978351" lon="8.94087796099484">
        <ele>723.51171875</ele>
        <time>2018-08-12T18:30:25Z</time>
      </trkpt>
      <trkpt lat="59.548074966296554" lon="8.940616026520729">
        <ele>723.546875</ele>
        <time>2018-08-12T18:30:34Z</time>
      </trkpt>
      <trkpt lat="59.548082007095218" lon="8.940622983500361">
        <ele>723.51171875</ele>
        <time>2018-08-12T18:30:42Z</time>
      </trkpt>
      <trkpt lat="59.548091981559992" lon="8.940589036792517">
        <ele>723.28125</ele>
        <time>2018-08-12T18:30:52Z</time>
      </trkpt>
      <trkpt lat="59.54800195991993" lon="8.940193997696042">
        <ele>722.33984375</ele>
        <time>2018-08-12T18:31:02Z</time>
      </trkpt>
      <trkpt lat="59.547886960208416" lon="8.939804993569851">
        <ele>721.3828125</ele>
        <time>2018-08-12T18:31:14Z</time>
      </trkpt>
      <trkpt lat="59.54774203710258" lon="8.93935396336019">
        <ele>720.61328125</ele>
        <time>2018-08-12T18:31:27Z</time>
      </trkpt>
      <trkpt lat="59.547582026571035" lon="8.939125975593925">
        <ele>720.77734375</ele>
        <time>2018-08-12T18:31:36Z</time>
      </trkpt>
      <trkpt lat="59.547552019357681" lon="8.938752980902791">
        <ele>719.34375</ele>
        <time>2018-08-12T18:31:45Z</time>
      </trkpt>
      <trkpt lat="59.547482030466199" lon="8.938346961513162">
        <ele>716.98828125</ele>
        <time>2018-08-12T18:31:57Z</time>
      </trkpt>
      <trkpt lat="59.547502985224128" lon="8.938049990683794">
        <ele>714.7734375</ele>
        <time>2018-08-12T18:32:04Z</time>
      </trkpt>
      <trkpt lat="59.547510026022792" lon="8.937728041782975">
        <ele>712.34375</ele>
        <time>2018-08-12T18:32:14Z</time>
      </trkpt>
      <trkpt lat="59.54752896912396" lon="8.937389999628067">
        <ele>709.25</ele>
        <time>2018-08-12T18:32:24Z</time>
      </trkpt>
      <trkpt lat="59.547498039901257" lon="8.937071990221739">
        <ele>706.1953125</ele>
        <time>2018-08-12T18:32:32Z</time>
      </trkpt>
      <trkpt lat="59.547501979395747" lon="8.936961013823748">
        <ele>705.046875</ele>
        <time>2018-08-12T18:32:35Z</time>
      </trkpt>
      <trkpt lat="59.547564005479217" lon="8.936794968321919">
        <ele>703.1640625</ele>
        <time>2018-08-12T18:32:42Z</time>
      </trkpt>
      <trkpt lat="59.547554031014442" lon="8.936690026894212">
        <ele>702.40234375</ele>
        <time>2018-08-12T18:32:45Z</time>
      </trkpt>
      <trkpt lat="59.547474989667535" lon="8.936233967542648">
        <ele>700.3203125</ele>
        <time>2018-08-12T18:32:55Z</time>
      </trkpt>
      <trkpt lat="59.54744003713131" lon="8.935768017545342">
        <ele>699.4140625</ele>
        <time>2018-08-12T18:33:06Z</time>
      </trkpt>
      <trkpt lat="59.547402989119291" lon="8.93542000092566">
        <ele>697.92578125</ele>
        <time>2018-08-12T18:33:16Z</time>
      </trkpt>
      <trkpt lat="59.547402989119291" lon="8.935091011226177">
        <ele>696.6796875</ele>
        <time>2018-08-12T18:33:25Z</time>
      </trkpt>
      <trkpt lat="59.547523017972708" lon="8.934803009033203">
        <ele>695.68359375</ele>
        <time>2018-08-12T18:33:34Z</time>
      </trkpt>
      <trkpt lat="59.547586971893907" lon="8.934396989643574">
        <ele>692.06640625</ele>
        <time>2018-08-12T18:33:45Z</time>
      </trkpt>
      <trkpt lat="59.547586971893907" lon="8.934004968032241">
        <ele>686.06640625</ele>
        <time>2018-08-12T18:33:56Z</time>
      </trkpt>
      <trkpt lat="59.547595018520951" lon="8.933710008859634">
        <ele>682.34765625</ele>
        <time>2018-08-12T18:34:05Z</time>
      </trkpt>
      <trkpt lat="59.547522012144327" lon="8.933509010821581">
        <ele>681.234375</ele>
        <time>2018-08-12T18:34:14Z</time>
      </trkpt>
      <trkpt lat="59.547484964132309" lon="8.933184966444969">
        <ele>680.2421875</ele>
        <time>2018-08-12T18:34:24Z</time>
      </trkpt>
      <trkpt lat="59.547452023252845" lon="8.932967958971858">
        <ele>679.75390625</ele>
        <time>2018-08-12T18:34:32Z</time>
      </trkpt>
      <trkpt lat="59.547452023252845" lon="8.933011963963509">
        <ele>679.828125</ele>
        <time>2018-08-12T18:34:42Z</time>
      </trkpt>
      <trkpt lat="59.547447999939322" lon="8.933037025853992">
        <ele>679.85546875</ele>
        <time>2018-08-12T18:34:55Z</time>
      </trkpt>
      <trkpt lat="59.547374993562698" lon="8.932811971753836">
        <ele>679.25390625</ele>
        <time>2018-08-12T18:35:04Z</time>
      </trkpt>
      <trkpt lat="59.547187993302941" lon="8.932434031739831">
        <ele>678.4609375</ele>
        <time>2018-08-12T18:35:15Z</time>
      </trkpt>
      <trkpt lat="59.546963023021817" lon="8.93213496543467">
        <ele>677.375</ele>
        <time>2018-08-12T18:35:28Z</time>
      </trkpt>
      <trkpt lat="59.546739980578423" lon="8.932079980149865">
        <ele>676.22265625</ele>
        <time>2018-08-12T18:35:39Z</time>
      </trkpt>
      <trkpt lat="59.546499000862241" lon="8.931912006810308">
        <ele>675.59375</ele>
        <time>2018-08-12T18:35:49Z</time>
      </trkpt>
      <trkpt lat="59.54630202613771" lon="8.931477991864085">
        <ele>675.4296875</ele>
        <time>2018-08-12T18:36:00Z</time>
      </trkpt>
      <trkpt lat="59.546060040593147" lon="8.931108014658094">
        <ele>674.43359375</ele>
        <time>2018-08-12T18:36:14Z</time>
      </trkpt>
      <trkpt lat="59.545934982597828" lon="8.930811965838075">
        <ele>673.84765625</ele>
        <time>2018-08-12T18:36:24Z</time>
      </trkpt>
      <trkpt lat="59.545925008133054" lon="8.930784976109862">
        <ele>673.83984375</ele>
        <time>2018-08-12T18:36:35Z</time>
      </trkpt>
      <trkpt lat="59.545863987877965" lon="8.930548019707203">
        <ele>674.21875</ele>
        <time>2018-08-12T18:36:44Z</time>
      </trkpt>
      <trkpt lat="59.545732978731394" lon="8.929982995614409">
        <ele>675.6328125</ele>
        <time>2018-08-12T18:36:55Z</time>
      </trkpt>
      <trkpt lat="59.545630970969796" lon="8.92955400981009">
        <ele>676.15234375</ele>
        <time>2018-08-12T18:37:05Z</time>
      </trkpt>
      <trkpt lat="59.545511025935411" lon="8.929041959345341">
        <ele>675.52734375</ele>
        <time>2018-08-12T18:37:17Z</time>
      </trkpt>
      <trkpt lat="59.545354032889009" lon="8.928705006837845">
        <ele>675.59765625</ele>
        <time>2018-08-12T18:37:27Z</time>
      </trkpt>
      <trkpt lat="59.545189999043941" lon="8.92837299965322">
        <ele>676.81640625</ele>
        <time>2018-08-12T18:37:38Z</time>
      </trkpt>
      <trkpt lat="59.544936027377844" lon="8.928196979686618">
        <ele>676.3671875</ele>
        <time>2018-08-12T18:37:51Z</time>
      </trkpt>
      <trkpt lat="59.544612988829613" lon="8.928296975791454">
        <ele>674.49609375</ele>
        <time>2018-08-12T18:38:05Z</time>
      </trkpt>
      <trkpt lat="59.544291961938143" lon="8.928107041865587">
        <ele>674.3046875</ele>
        <time>2018-08-12T18:38:20Z</time>
      </trkpt>
      <trkpt lat="59.544074032455683" lon="8.927872013300657">
        <ele>674.4375</ele>
        <time>2018-08-12T18:38:31Z</time>
      </trkpt>
      <trkpt lat="59.543868005275726" lon="8.927758019417524">
        <ele>674.4296875</ele>
        <time>2018-08-12T18:38:41Z</time>
      </trkpt>
      <trkpt lat="59.54359701834619" lon="8.927636984735727">
        <ele>674.96875</ele>
        <time>2018-08-12T18:38:54Z</time>
      </trkpt>
      <trkpt lat="59.543449999764562" lon="8.927375972270966">
        <ele>675.62109375</ele>
        <time>2018-08-12T18:39:05Z</time>
      </trkpt>
      <trkpt lat="59.543428961187601" lon="8.927335990592837">
        <ele>675.70703125</ele>
        <time>2018-08-12T18:39:07Z</time>
      </trkpt>
      <trkpt lat="59.543269034475088" lon="8.927328027784824">
        <ele>675.375</ele>
        <time>2018-08-12T18:39:14Z</time>
      </trkpt>
      <trkpt lat="59.543130984529853" lon="8.927482003346086">
        <ele>674.8671875</ele>
        <time>2018-08-12T18:39:23Z</time>
      </trkpt>
      <trkpt lat="59.542996035888791" lon="8.927520979195833">
        <ele>674.42578125</ele>
        <time>2018-08-12T18:39:30Z</time>
      </trkpt>
      <trkpt lat="59.542849017307162" lon="8.927279999479652">
        <ele>674.48046875</ele>
        <time>2018-08-12T18:39:39Z</time>
      </trkpt>
      <trkpt lat="59.542662017047405" lon="8.927010018378496">
        <ele>674.53125</ele>
        <time>2018-08-12T18:39:52Z</time>
      </trkpt>
      <trkpt lat="59.542546011507511" lon="8.926726961508393">
        <ele>675.00390625</ele>
        <time>2018-08-12T18:40:01Z</time>
      </trkpt>
      <trkpt lat="59.542298996821046" lon="8.926358995959163">
        <ele>674.46875</ele>
        <time>2018-08-12T18:40:14Z</time>
      </trkpt>
      <trkpt lat="59.542002025991678" lon="8.926044004037976">
        <ele>674.6484375</ele>
        <time>2018-08-12T18:40:29Z</time>
      </trkpt>
      <trkpt lat="59.541818965226412" lon="8.925986001268029">
        <ele>674.96484375</ele>
        <time>2018-08-12T18:40:38Z</time>
      </trkpt>
      <trkpt lat="59.541630037128925" lon="8.926208959892392">
        <ele>674.92578125</ele>
        <time>2018-08-12T18:40:48Z</time>
      </trkpt>
      <trkpt lat="59.54144898802042" lon="8.926407024264336">
        <ele>674.98828125</ele>
        <time>2018-08-12T18:40:59Z</time>
      </trkpt>
      <trkpt lat="59.541410012170672" lon="8.926449017599225">
        <ele>674.93359375</ele>
        <time>2018-08-12T18:41:02Z</time>
      </trkpt>
      <trkpt lat="59.541344968602061" lon="8.926682034507394">
        <ele>673.70703125</ele>
        <time>2018-08-12T18:41:09Z</time>
      </trkpt>
      <trkpt lat="59.541122009977698" lon="8.926969030871987">
        <ele>673.14453125</ele>
        <time>2018-08-12T18:41:21Z</time>
      </trkpt>
      <trkpt lat="59.540882958099246" lon="8.927275976166129">
        <ele>672.74609375</ele>
        <time>2018-08-12T18:41:34Z</time>
      </trkpt>
      <trkpt lat="59.540700986981392" lon="8.927463982254267">
        <ele>672.65234375</ele>
        <time>2018-08-12T18:41:45Z</time>
      </trkpt>
      <trkpt lat="59.540607025846839" lon="8.927401034161449">
        <ele>673.39453125</ele>
        <time>2018-08-12T18:41:50Z</time>
      </trkpt>
      <trkpt lat="59.540362022817135" lon="8.92719098366797">
        <ele>676.32421875</ele>
        <time>2018-08-12T18:42:03Z</time>
      </trkpt>
      <trkpt lat="59.540140992030501" lon="8.927307995036244">
        <ele>678.03515625</ele>
        <time>2018-08-12T18:42:13Z</time>
      </trkpt>
      <trkpt lat="59.539908980950713" lon="8.927450990304351">
        <ele>678.421875</ele>
        <time>2018-08-12T18:42:24Z</time>
      </trkpt>
      <trkpt lat="59.539735978469253" lon="8.927651988342404">
        <ele>677.15625</ele>
        <time>2018-08-12T18:42:34Z</time>
      </trkpt>
      <trkpt lat="59.539727009832859" lon="8.927669003605843">
        <ele>676.9453125</ele>
        <time>2018-08-12T18:42:41Z</time>
      </trkpt>
      <trkpt lat="59.539732960984111" lon="8.92766397446394">
        <ele>676.9921875</ele>
        <time>2018-08-12T18:42:55Z</time>
      </trkpt>
      <trkpt lat="59.539735978469253" lon="8.927667997777462">
        <ele>676.921875</ele>
        <time>2018-08-12T18:43:09Z</time>
      </trkpt>
      <trkpt lat="59.539737990126014" lon="8.927672021090984">
        <ele>676.85546875</ele>
        <time>2018-08-12T18:43:26Z</time>
      </trkpt>
      <trkpt lat="59.539689039811492" lon="8.927745027467609">
        <ele>675.97265625</ele>
        <time>2018-08-12T18:43:57Z</time>
      </trkpt>
      <trkpt lat="59.53947002068162" lon="8.927955999970436">
        <ele>674.8046875</ele>
        <time>2018-08-12T18:44:06Z</time>
      </trkpt>
      <trkpt lat="59.539187969639897" lon="8.928281972184777">
        <ele>674.80859375</ele>
        <time>2018-08-12T18:44:18Z</time>
      </trkpt>
      <trkpt lat="59.538981020450592" lon="8.928640969097614">
        <ele>675.4375</ele>
        <time>2018-08-12T18:44:30Z</time>
      </trkpt>
      <trkpt lat="59.53878303989768" lon="8.928763009607792">
        <ele>677.37890625</ele>
        <time>2018-08-12T18:44:39Z</time>
      </trkpt>
      <trkpt lat="59.53856703825295" lon="8.929002983495593">
        <ele>675.38671875</ele>
        <time>2018-08-12T18:44:51Z</time>
      </trkpt>
      <trkpt lat="59.538391018286347" lon="8.929083030670881">
        <ele>675.76171875</ele>
        <time>2018-08-12T18:44:59Z</time>
      </trkpt>
      <trkpt lat="59.538245005533099" lon="8.929193001240492">
        <ele>676.39453125</ele>
        <time>2018-08-12T18:45:07Z</time>
      </trkpt>
      <trkpt lat="59.538136962801218" lon="8.929538000375032">
        <ele>675.65234375</ele>
        <time>2018-08-12T18:45:16Z</time>
      </trkpt>
      <trkpt lat="59.538048030808568" lon="8.929858021438122">
        <ele>673.55078125</ele>
        <time>2018-08-12T18:45:26Z</time>
      </trkpt>
      <trkpt lat="59.537893971428275" lon="8.93013495951891">
        <ele>673.875</ele>
        <time>2018-08-12T18:45:38Z</time>
      </trkpt>
      <trkpt lat="59.53786002472043" lon="8.930255994200707">
        <ele>674.4375</ele>
        <time>2018-08-12T18:45:43Z</time>
      </trkpt>
      <trkpt lat="59.537765979766846" lon="8.930524969473481">
        <ele>675.46484375</ele>
        <time>2018-08-12T18:45:51Z</time>
      </trkpt>
      <trkpt lat="59.537574034184217" lon="8.930626977235079">
        <ele>677.24609375</ele>
        <time>2018-08-12T18:46:01Z</time>
      </trkpt>
      <trkpt lat="59.537287959828973" lon="8.930647009983659">
        <ele>677.72265625</ele>
        <time>2018-08-12T18:46:13Z</time>
      </trkpt>
      <trkpt lat="59.53712803311646" lon="8.930894024670124">
        <ele>675.8046875</ele>
        <time>2018-08-12T18:46:22Z</time>
      </trkpt>
      <trkpt lat="59.53704496845603" lon="8.931371038779616">
        <ele>672.74609375</ele>
        <time>2018-08-12T18:46:33Z</time>
      </trkpt>
      <trkpt lat="59.536880012601614" lon="8.931803964078426">
        <ele>672.8515625</ele>
        <time>2018-08-12T18:46:43Z</time>
      </trkpt>
      <trkpt lat="59.536822009831667" lon="8.932127002626658">
        <ele>673.04296875</ele>
        <time>2018-08-12T18:46:52Z</time>
      </trkpt>
      <trkpt lat="59.536827960982919" lon="8.932106969878078">
        <ele>673.03515625</ele>
        <time>2018-08-12T18:47:07Z</time>
      </trkpt>
      <trkpt lat="59.536823015660048" lon="8.932121973484755">
        <ele>673.04296875</ele>
        <time>2018-08-12T18:47:23Z</time>
      </trkpt>
      <trkpt lat="59.536731988191605" lon="8.932351972907782">
        <ele>673.7109375</ele>
        <time>2018-08-12T18:47:32Z</time>
      </trkpt>
      <trkpt lat="59.536483967676759" lon="8.93262698315084">
        <ele>673.984375</ele>
        <time>2018-08-12T18:47:40Z</time>
      </trkpt>
      <trkpt lat="59.536372991278768" lon="8.932962007820606">
        <ele>673.36328125</ele>
        <time>2018-08-12T18:47:48Z</time>
      </trkpt>
      <trkpt lat="59.536183979362249" lon="8.933197958394885">
        <ele>674.10546875</ele>
        <time>2018-08-12T18:47:58Z</time>
      </trkpt>
      <trkpt lat="59.535923972725868" lon="8.933383030816913">
        <ele>675.00390625</ele>
        <time>2018-08-12T18:48:09Z</time>
      </trkpt>
      <trkpt lat="59.535718029364944" lon="8.93339803442359">
        <ele>676.1640625</ele>
        <time>2018-08-12T18:48:17Z</time>
      </trkpt>
      <trkpt lat="59.535480989143252" lon="8.933672038838267">
        <ele>677.88671875</ele>
        <time>2018-08-12T18:48:27Z</time>
      </trkpt>
      <trkpt lat="59.535192986950278" lon="8.933976972475648">
        <ele>676.00390625</ele>
        <time>2018-08-12T18:48:37Z</time>
      </trkpt>
      <trkpt lat="59.535053009167314" lon="8.934019971638918">
        <ele>676.5390625</ele>
        <time>2018-08-12T18:48:41Z</time>
      </trkpt>
      <trkpt lat="59.534909008070827" lon="8.934433031827211">
        <ele>673.87109375</ele>
        <time>2018-08-12T18:48:47Z</time>
      </trkpt>
      <trkpt lat="59.534833990037441" lon="8.934963019564748">
        <ele>673.1953125</ele>
        <time>2018-08-12T18:48:55Z</time>
      </trkpt>
      <trkpt lat="59.534820998087525" lon="8.935521002858877">
        <ele>672.67578125</ele>
        <time>2018-08-12T18:49:05Z</time>
      </trkpt>
      <trkpt lat="59.534832984209061" lon="8.935780003666878">
        <ele>672.07421875</ele>
        <time>2018-08-12T18:49:14Z</time>
      </trkpt>
      <trkpt lat="59.534805994480848" lon="8.935774974524975">
        <ele>672.11328125</ele>
        <time>2018-08-12T18:49:18Z</time>
      </trkpt>
      <trkpt lat="59.534767018631101" lon="8.93580699339509">
        <ele>672.14453125</ele>
        <time>2018-08-12T18:49:28Z</time>
      </trkpt>
      <trkpt lat="59.534772969782352" lon="8.935798024758697">
        <ele>672.14453125</ele>
        <time>2018-08-12T18:49:29Z</time>
      </trkpt>
      <trkpt lat="59.534816974774003" lon="8.935882011428475">
        <ele>672.08203125</ele>
        <time>2018-08-12T18:49:35Z</time>
      </trkpt>
      <trkpt lat="59.534775987267494" lon="8.936355002224445">
        <ele>673.84765625</ele>
        <time>2018-08-12T18:49:47Z</time>
      </trkpt>
      <trkpt lat="59.534722007811069" lon="8.936768984422088">
        <ele>673.09765625</ele>
        <time>2018-08-12T18:49:59Z</time>
      </trkpt>
      <trkpt lat="59.534681020304561" lon="8.937134016305208">
        <ele>672.0703125</ele>
        <time>2018-08-12T18:50:13Z</time>
      </trkpt>
      <trkpt lat="59.5346599817276" lon="8.937479015439749">
        <ele>672.0703125</ele>
        <time>2018-08-12T18:50:25Z</time>
      </trkpt>
      <trkpt lat="59.534649001434445" lon="8.937822002917528">
        <ele>672.38671875</ele>
        <time>2018-08-12T18:50:36Z</time>
      </trkpt>
      <trkpt lat="59.534642966464162" lon="8.937957035377622">
        <ele>672.55078125</ele>
        <time>2018-08-12T18:50:44Z</time>
      </trkpt>
      <trkpt lat="59.534780010581017" lon="8.938140012323856">
        <ele>672.25390625</ele>
        <time>2018-08-12T18:50:52Z</time>
      </trkpt>
      <trkpt lat="59.534886041656137" lon="8.938419967889786">
        <ele>672.0703125</ele>
        <time>2018-08-12T18:51:03Z</time>
      </trkpt>
      <trkpt lat="59.534945972263813" lon="8.93883403390646">
        <ele>672.703125</ele>
        <time>2018-08-12T18:51:16Z</time>
      </trkpt>
      <trkpt lat="59.534972039982677" lon="8.939107032492757">
        <ele>672.6953125</ele>
        <time>2018-08-12T18:51:27Z</time>
      </trkpt>
      <trkpt lat="59.534973967820406" lon="8.939384976401925">
        <ele>672.6875</ele>
        <time>2018-08-12T18:51:38Z</time>
      </trkpt>
      <trkpt lat="59.53496097587049" lon="8.93948002718389">
        <ele>672.74609375</ele>
        <time>2018-08-12T18:51:41Z</time>
      </trkpt>
      <trkpt lat="59.535029036924243" lon="8.939789989963174">
        <ele>673.046875</ele>
        <time>2018-08-12T18:51:48Z</time>
      </trkpt>
      <trkpt lat="59.535154011100531" lon="8.940284019336104">
        <ele>673.01953125</ele>
        <time>2018-08-12T18:52:00Z</time>
      </trkpt>
      <trkpt lat="59.535122998058796" lon="8.940680986270309">
        <ele>673.60546875</ele>
        <time>2018-08-12T18:52:10Z</time>
      </trkpt>
      <trkpt lat="59.535134984180331" lon="8.941131010651588">
        <ele>674.94921875</ele>
        <time>2018-08-12T18:52:19Z</time>
      </trkpt>
      <trkpt lat="59.535221988335252" lon="8.941480033099651">
        <ele>674.31640625</ele>
        <time>2018-08-12T18:52:28Z</time>
      </trkpt>
      <trkpt lat="59.535242021083832" lon="8.941827965900302">
        <ele>674.05078125</ele>
        <time>2018-08-12T18:52:37Z</time>
      </trkpt>
      <trkpt lat="59.535216037184" lon="8.942129965871573">
        <ele>674.44921875</ele>
        <time>2018-08-12T18:52:46Z</time>
      </trkpt>
      <trkpt lat="59.535159962251782" lon="8.942421991378069">
        <ele>675.38671875</ele>
        <time>2018-08-12T18:52:56Z</time>
      </trkpt>
      <trkpt lat="59.535134984180331" lon="8.942834967747331">
        <ele>675.74609375</ele>
        <time>2018-08-12T18:53:08Z</time>
      </trkpt>
      <trkpt lat="59.535144958645105" lon="8.943233024328947">
        <ele>675.39453125</ele>
        <time>2018-08-12T18:53:19Z</time>
      </trkpt>
      <trkpt lat="59.535227017477155" lon="8.943767035380006">
        <ele>673.703125</ele>
        <time>2018-08-12T18:53:33Z</time>
      </trkpt>
      <trkpt lat="59.53534503467381" lon="8.943982031196356">
        <ele>672.53515625</ele>
        <time>2018-08-12T18:53:41Z</time>
      </trkpt>
      <trkpt lat="59.535473026335239" lon="8.944069035351276">
        <ele>672.12890625</ele>
        <time>2018-08-12T18:53:49Z</time>
      </trkpt>
      <trkpt lat="59.535521976649761" lon="8.944199038669467">
        <ele>672.19140625</ele>
        <time>2018-08-12T18:53:54Z</time>
      </trkpt>
      <trkpt lat="59.535622978582978" lon="8.944478994235396">
        <ele>672.54296875</ele>
        <time>2018-08-12T18:54:03Z</time>
      </trkpt>
      <trkpt lat="59.535687016323209" lon="8.944516964256764">
        <ele>672.0703125</ele>
        <time>2018-08-12T18:54:10Z</time>
      </trkpt>
      <trkpt lat="59.535751976072788" lon="8.944824999198318">
        <ele>672.0703125</ele>
        <time>2018-08-12T18:54:18Z</time>
      </trkpt>
      <trkpt lat="59.535755999386311" lon="8.944867998361588">
        <ele>672.1328125</ele>
        <time>2018-08-12T18:54:19Z</time>
      </trkpt>
      <trkpt lat="59.535827999934554" lon="8.94519598223269">
        <ele>672.66015625</ele>
        <time>2018-08-12T18:54:29Z</time>
      </trkpt>
      <trkpt lat="59.535902012139559" lon="8.945424975827336">
        <ele>673.12890625</ele>
        <time>2018-08-12T18:54:38Z</time>
      </trkpt>
      <trkpt lat="59.535977030172944" lon="8.945577023550868">
        <ele>673.18359375</ele>
        <time>2018-08-12T18:54:49Z</time>
      </trkpt>
      <trkpt lat="59.53601298853755" lon="8.945664027705789">
        <ele>673.2734375</ele>
        <time>2018-08-12T18:55:00Z</time>
      </trkpt>
      <trkpt lat="59.536024974659085" lon="8.945720018818975">
        <ele>673.859375</ele>
        <time>2018-08-12T18:55:09Z</time>
      </trkpt>
      <trkpt lat="59.535998990759254" lon="8.945742985233665">
        <ele>674.25</ele>
        <time>2018-08-12T18:55:20Z</time>
      </trkpt>
      <trkpt lat="59.536001002416015" lon="8.945746002718806">
        <ele>674.2734375</ele>
        <time>2018-08-12T18:55:36Z</time>
      </trkpt>
      <trkpt lat="59.53601298853755" lon="8.945748014375567">
        <ele>674.23828125</ele>
        <time>2018-08-12T18:55:49Z</time>
      </trkpt>
      <trkpt lat="59.536018017679453" lon="8.945764023810625">
        <ele>674.40234375</ele>
        <time>2018-08-12T18:56:03Z</time>
      </trkpt>
      <trkpt lat="59.536070991307497" lon="8.945876006036997">
        <ele>675.4921875</ele>
        <time>2018-08-12T18:56:14Z</time>
      </trkpt>
      <trkpt lat="59.536048024892807" lon="8.946199966594577">
        <ele>680.17578125</ele>
        <time>2018-08-12T18:56:25Z</time>
      </trkpt>
      <trkpt lat="59.535905029624701" lon="8.94641999155283">
        <ele>680.37109375</ele>
        <time>2018-08-12T18:56:34Z</time>
      </trkpt>
      <trkpt lat="59.535845015197992" lon="8.946472965180874">
        <ele>680.23828125</ele>
        <time>2018-08-12T18:56:37Z</time>
      </trkpt>
      <trkpt lat="59.535772008821368" lon="8.946734983474016">
        <ele>679.42578125</ele>
        <time>2018-08-12T18:56:44Z</time>
      </trkpt>
      <trkpt lat="59.535616021603346" lon="8.946898011490703">
        <ele>678.05859375</ele>
        <time>2018-08-12T18:56:51Z</time>
      </trkpt>
      <trkpt lat="59.535499010235071" lon="8.947168998420239">
        <ele>677.11328125</ele>
        <time>2018-08-12T18:56:59Z</time>
      </trkpt>
      <trkpt lat="59.53539096750319" lon="8.94734401255846">
        <ele>676.61328125</ele>
        <time>2018-08-12T18:57:07Z</time>
      </trkpt>
      <trkpt lat="59.535234980285168" lon="8.947531012818217">
        <ele>675.1640625</ele>
        <time>2018-08-12T18:57:15Z</time>
      </trkpt>
      <trkpt lat="59.535079998895526" lon="8.947725975885987">
        <ele>673.70703125</ele>
        <time>2018-08-12T18:57:24Z</time>
      </trkpt>
      <trkpt lat="59.534870032221079" lon="8.947893027216196">
        <ele>671.48046875</ele>
        <time>2018-08-12T18:57:32Z</time>
      </trkpt>
      <trkpt lat="59.534684959799051" lon="8.94811799749732">
        <ele>669.65625</ele>
        <time>2018-08-12T18:57:42Z</time>
      </trkpt>
      <trkpt lat="59.534514974802732" lon="8.948499960824847">
        <ele>667.9765625</ele>
        <time>2018-08-12T18:57:55Z</time>
      </trkpt>
      <trkpt lat="59.534356975927949" lon="8.948781006038189">
        <ele>666.4140625</ele>
        <time>2018-08-12T18:58:06Z</time>
      </trkpt>
      <trkpt lat="59.534224038943648" lon="8.948875973001123">
        <ele>665.12890625</ele>
        <time>2018-08-12T18:58:15Z</time>
      </trkpt>
      <trkpt lat="59.534124964848161" lon="8.948971023783088">
        <ele>664.1328125</ele>
        <time>2018-08-12T18:58:25Z</time>
      </trkpt>
      <trkpt lat="59.53410099260509" lon="8.948991978541017">
        <ele>663.8828125</ele>
        <time>2018-08-12T18:58:29Z</time>
      </trkpt>
      <trkpt lat="59.533997979015112" lon="8.94899700768292">
        <ele>662.88671875</ele>
        <time>2018-08-12T18:58:40Z</time>
      </trkpt>
      <trkpt lat="59.534022035077214" lon="8.948993990197778">
        <ele>663.1015625</ele>
        <time>2018-08-12T18:58:52Z</time>
      </trkpt>
      <trkpt lat="59.534006025642157" lon="8.94902097992599">
        <ele>662.9453125</ele>
        <time>2018-08-12T18:59:02Z</time>
      </trkpt>
      <trkpt lat="59.533916004002094" lon="8.949202029034495">
        <ele>662.34375</ele>
        <time>2018-08-12T18:59:12Z</time>
      </trkpt>
      <trkpt lat="59.533876022323966" lon="8.949285009875894">
        <ele>662.1015625</ele>
        <time>2018-08-12T18:59:20Z</time>
      </trkpt>
      <trkpt lat="59.533873004838824" lon="8.949582986533642">
        <ele>662.42578125</ele>
        <time>2018-08-12T18:59:26Z</time>
      </trkpt>
      <trkpt lat="59.533855989575386" lon="8.949688011780381">
        <ele>662.390625</ele>
        <time>2018-08-12T18:59:29Z</time>
      </trkpt>
      <trkpt lat="59.53386202454567" lon="8.949812985956669">
        <ele>662.58203125</ele>
        <time>2018-08-12T18:59:35Z</time>
      </trkpt>
      <trkpt lat="59.533855989575386" lon="8.94994399510324">
        <ele>662.7421875</ele>
        <time>2018-08-12T18:59:40Z</time>
      </trkpt>
      <trkpt lat="59.533767979592085" lon="8.950319001451135">
        <ele>662.33203125</ele>
        <time>2018-08-12T18:59:50Z</time>
      </trkpt>
      <trkpt lat="59.533762028440833" lon="8.950860975310206">
        <ele>663.1171875</ele>
        <time>2018-08-12T19:00:02Z</time>
      </trkpt>
      <trkpt lat="59.533790023997426" lon="8.951410995796323">
        <ele>663.80078125</ele>
        <time>2018-08-12T19:00:14Z</time>
      </trkpt>
      <trkpt lat="59.533789018169045" lon="8.951587015762925">
        <ele>664.0546875</ele>
        <time>2018-08-12T19:00:18Z</time>
      </trkpt>
      <trkpt lat="59.533729003742337" lon="8.951807040721178">
        <ele>663.859375</ele>
        <time>2018-08-12T19:00:24Z</time>
      </trkpt>
      <trkpt lat="59.533740989863873" lon="8.951839981600642">
        <ele>663.9375</ele>
        <time>2018-08-12T19:00:25Z</time>
      </trkpt>
      <trkpt lat="59.53377602621913" lon="8.952233009040356">
        <ele>664.05859375</ele>
        <time>2018-08-12T19:00:34Z</time>
      </trkpt>
      <trkpt lat="59.533722968772054" lon="8.952510030940175">
        <ele>663.8046875</ele>
        <time>2018-08-12T19:00:42Z</time>
      </trkpt>
      <trkpt lat="59.533719029277563" lon="8.952536014840007">
        <ele>663.76171875</ele>
        <time>2018-08-12T19:00:43Z</time>
      </trkpt>
      <trkpt lat="59.533721962943673" lon="8.952862992882729">
        <ele>663.515625</ele>
        <time>2018-08-12T19:00:51Z</time>
      </trkpt>
      <trkpt lat="59.533664966002107" lon="8.953187959268689">
        <ele>662.5859375</ele>
        <time>2018-08-12T19:01:00Z</time>
      </trkpt>
      <trkpt lat="59.533591959625483" lon="8.953297007828951">
        <ele>662.1875</ele>
        <time>2018-08-12T19:01:06Z</time>
      </trkpt>
      <trkpt lat="59.533488024026155" lon="8.953643012791872">
        <ele>661.125</ele>
        <time>2018-08-12T19:01:17Z</time>
      </trkpt>
      <trkpt lat="59.533408982679248" lon="8.953894972801209">
        <ele>660.06640625</ele>
        <time>2018-08-12T19:01:27Z</time>
      </trkpt>
      <trkpt lat="59.533371012657881" lon="8.953996980562806">
        <ele>659.5859375</ele>
        <time>2018-08-12T19:01:35Z</time>
      </trkpt>
      <trkpt lat="59.533356009051204" lon="8.954012989997864">
        <ele>659.46875</ele>
        <time>2018-08-12T19:01:37Z</time>
      </trkpt>
      <trkpt lat="59.533208990469575" lon="8.954163026064634">
        <ele>658.33984375</ele>
        <time>2018-08-12T19:01:44Z</time>
      </trkpt>
      <trkpt lat="59.532990977168083" lon="8.95415598526597">
        <ele>655.875</ele>
        <time>2018-08-12T19:01:52Z</time>
      </trkpt>
      <trkpt lat="59.53279098495841" lon="8.954199990257621">
        <ele>653.1171875</ele>
        <time>2018-08-12T19:02:00Z</time>
      </trkpt>
      <trkpt lat="59.532740022987127" lon="8.954449016600847">
        <ele>652.3359375</ele>
        <time>2018-08-12T19:02:08Z</time>
      </trkpt>
      <trkpt lat="59.532770030200481" lon="8.954795021563768">
        <ele>652.796875</ele>
        <time>2018-08-12T19:02:19Z</time>
      </trkpt>
      <trkpt lat="59.53270398080349" lon="8.955082017928362">
        <ele>651.78125</ele>
        <time>2018-08-12T19:02:27Z</time>
      </trkpt>
      <trkpt lat="59.532598033547401" lon="8.955545034259558">
        <ele>649.01171875</ele>
        <time>2018-08-12T19:02:38Z</time>
      </trkpt>
      <trkpt lat="59.532581018283963" lon="8.955896990373731">
        <ele>648.15625</ele>
        <time>2018-08-12T19:02:47Z</time>
      </trkpt>
      <trkpt lat="59.532619994133711" lon="8.956323964521289">
        <ele>650.44140625</ele>
        <time>2018-08-12T19:02:58Z</time>
      </trkpt>
      <trkpt lat="59.532576994970441" lon="8.956611966714263">
        <ele>647.640625</ele>
        <time>2018-08-12T19:03:05Z</time>
      </trkpt>
      <trkpt lat="59.532597027719021" lon="8.956961994990706">
        <ele>646.55078125</ele>
        <time>2018-08-12T19:03:14Z</time>
      </trkpt>
      <trkpt lat="59.532590992748737" lon="8.95729199051857">
        <ele>645.70703125</ele>
        <time>2018-08-12T19:03:24Z</time>
      </trkpt>
      <trkpt lat="59.532665004953742" lon="8.95761301741004">
        <ele>641.9921875</ele>
        <time>2018-08-12T19:03:33Z</time>
      </trkpt>
      <trkpt lat="59.532699035480618" lon="8.958046026527882">
        <ele>638.4453125</ele>
        <time>2018-08-12T19:03:42Z</time>
      </trkpt>
      <trkpt lat="59.532671039924026" lon="8.958316007629037">
        <ele>635.2578125</ele>
        <time>2018-08-12T19:03:48Z</time>
      </trkpt>
      <trkpt lat="59.532587975263596" lon="8.958605015650392">
        <ele>630.42578125</ele>
        <time>2018-08-12T19:03:57Z</time>
      </trkpt>
      <trkpt lat="59.532517986372113" lon="8.958917995914817">
        <ele>627.3046875</ele>
        <time>2018-08-12T19:04:06Z</time>
      </trkpt>
      <trkpt lat="59.532560985535383" lon="8.959380006417632">
        <ele>625.26953125</ele>
        <time>2018-08-12T19:04:16Z</time>
      </trkpt>
      <trkpt lat="59.532601973041892" lon="8.959791976958513">
        <ele>623.2578125</ele>
        <time>2018-08-12T19:04:25Z</time>
      </trkpt>
      <trkpt lat="59.532634997740388" lon="8.960161032155156">
        <ele>622.20703125</ele>
        <time>2018-08-12T19:04:36Z</time>
      </trkpt>
      <trkpt lat="59.53259501606226" lon="8.96057803183794">
        <ele>621.0546875</ele>
        <time>2018-08-12T19:04:44Z</time>
      </trkpt>
      <trkpt lat="59.532502982765436" lon="8.960953038185835">
        <ele>618.99609375</ele>
        <time>2018-08-12T19:04:53Z</time>
      </trkpt>
      <trkpt lat="59.532543970271945" lon="8.961299965158105">
        <ele>618.5546875</ele>
        <time>2018-08-12T19:05:02Z</time>
      </trkpt>
      <trkpt lat="59.532550005242229" lon="8.961734985932708">
        <ele>618.875</ele>
        <time>2018-08-12T19:05:13Z</time>
      </trkpt>
      <trkpt lat="59.532452020794153" lon="8.96223396062851">
        <ele>619.4765625</ele>
        <time>2018-08-12T19:05:25Z</time>
      </trkpt>
      <trkpt lat="59.532341966405511" lon="8.96253202110529">
        <ele>618.17578125</ele>
        <time>2018-08-12T19:05:34Z</time>
      </trkpt>
      <trkpt lat="59.53231799416244" lon="8.962925970554352">
        <ele>617.19140625</ele>
        <time>2018-08-12T19:05:44Z</time>
      </trkpt>
      <trkpt lat="59.532373985275626" lon="8.963360991328955">
        <ele>618.140625</ele>
        <time>2018-08-12T19:05:54Z</time>
      </trkpt>
      <trkpt lat="59.532371973618865" lon="8.963690986856818">
        <ele>617.67578125</ele>
        <time>2018-08-12T19:06:01Z</time>
      </trkpt>
      <trkpt lat="59.532354036346078" lon="8.964026011526585">
        <ele>616.109375</ele>
        <time>2018-08-12T19:06:09Z</time>
      </trkpt>
      <trkpt lat="59.532170975580812" lon="8.964261040091515">
        <ele>614.2109375</ele>
        <time>2018-08-12T19:06:19Z</time>
      </trkpt>
      <trkpt lat="59.532048013061285" lon="8.964499002322555">
        <ele>614.03515625</ele>
        <time>2018-08-12T19:06:27Z</time>
      </trkpt>
      <trkpt lat="59.531925972551107" lon="8.96485598757863">
        <ele>615.0390625</ele>
        <time>2018-08-12T19:06:37Z</time>
      </trkpt>
      <trkpt lat="59.531828993931413" lon="8.96509101614356">
        <ele>616.1640625</ele>
        <time>2018-08-12T19:06:45Z</time>
      </trkpt>
      <trkpt lat="59.531668983399868" lon="8.9653480052948">
        <ele>609.828125</ele>
        <time>2018-08-12T19:06:55Z</time>
      </trkpt>
      <trkpt lat="59.531549960374832" lon="8.965694010257721">
        <ele>607.6875</ele>
        <time>2018-08-12T19:07:06Z</time>
      </trkpt>
      <trkpt lat="59.531601006165147" lon="8.96614596247673">
        <ele>609.55078125</ele>
        <time>2018-08-12T19:07:14Z</time>
      </trkpt>
      <trkpt lat="59.531638976186514" lon="8.966469001024962">
        <ele>610.41015625</ele>
        <time>2018-08-12T19:07:22Z</time>
      </trkpt>
      <trkpt lat="59.531706031411886" lon="8.966731019318104">
        <ele>611.0234375</ele>
        <time>2018-08-12T19:07:31Z</time>
      </trkpt>
      <trkpt lat="59.531804015859962" lon="8.967073000967503">
        <ele>611.984375</ele>
        <time>2018-08-12T19:07:41Z</time>
      </trkpt>
      <trkpt lat="59.53199302777648" lon="8.967493018135428">
        <ele>617.23828125</ele>
        <time>2018-08-12T19:07:52Z</time>
      </trkpt>
      <trkpt lat="59.532020017504692" lon="8.96777699701488">
        <ele>618.69140625</ele>
        <time>2018-08-12T19:07:59Z</time>
      </trkpt>
      <trkpt lat="59.5319729950279" lon="8.968090983107686">
        <ele>618.42578125</ele>
        <time>2018-08-12T19:08:07Z</time>
      </trkpt>
      <trkpt lat="59.53188699670136" lon="8.968523992225528">
        <ele>616.078125</ele>
        <time>2018-08-12T19:08:18Z</time>
      </trkpt>
      <trkpt lat="59.53167300671339" lon="8.968671010807157">
        <ele>611.48046875</ele>
        <time>2018-08-12T19:08:29Z</time>
      </trkpt>
      <trkpt lat="59.531474020332098" lon="8.968839989975095">
        <ele>607.8828125</ele>
        <time>2018-08-12T19:08:37Z</time>
      </trkpt>
      <trkpt lat="59.531213007867336" lon="8.968876032158732">
        <ele>603.875</ele>
        <time>2018-08-12T19:08:47Z</time>
      </trkpt>
      <trkpt lat="59.53102801926434" lon="8.969041993841529">
        <ele>601.21484375</ele>
        <time>2018-08-12T19:08:56Z</time>
      </trkpt>
      <trkpt lat="59.530956018716097" lon="8.969435021281242">
        <ele>601.6171875</ele>
        <time>2018-08-12T19:09:05Z</time>
      </trkpt>
      <trkpt lat="59.530911007896066" lon="8.969693016260862">
        <ele>601.24609375</ele>
        <time>2018-08-12T19:09:14Z</time>
      </trkpt>
      <trkpt lat="59.530869014561176" lon="8.970066010951996">
        <ele>600.84375</ele>
        <time>2018-08-12T19:09:24Z</time>
      </trkpt>
      <trkpt lat="59.530845964327455" lon="8.970094006508589">
        <ele>599.8984375</ele>
        <time>2018-08-12T19:09:27Z</time>
      </trkpt>
      <trkpt lat="59.530670028179884" lon="8.970177993178368">
        <ele>592.03515625</ele>
        <time>2018-08-12T19:09:35Z</time>
      </trkpt>
      <trkpt lat="59.530547987669706" lon="8.97029098123312">
        <ele>589.375</ele>
        <time>2018-08-12T19:09:42Z</time>
      </trkpt>
      <trkpt lat="59.530388982966542" lon="8.970607984811068">
        <ele>585.125</ele>
        <time>2018-08-12T19:09:53Z</time>
      </trkpt>
      <trkpt lat="59.530347995460033" lon="8.970707980915904">
        <ele>583.34375</ele>
        <time>2018-08-12T19:09:58Z</time>
      </trkpt>
      <trkpt lat="59.530225032940507" lon="8.97069800645113">
        <ele>580.19921875</ele>
        <time>2018-08-12T19:10:05Z</time>
      </trkpt>
      <trkpt lat="59.530130987986922" lon="8.970905961468816">
        <ele>575.66796875</ele>
        <time>2018-08-12T19:10:10Z</time>
      </trkpt>
      <trkpt lat="59.530119001865387" lon="8.970983996987343">
        <ele>575.3828125</ele>
        <time>2018-08-12T19:10:16Z</time>
      </trkpt>
      <trkpt lat="59.530113972723484" lon="8.970944015309215">
        <ele>575.1640625</ele>
        <time>2018-08-12T19:10:30Z</time>
      </trkpt>
      <trkpt lat="59.530106009915471" lon="8.970932029187679">
        <ele>575.01171875</ele>
        <time>2018-08-12T19:10:36Z</time>
      </trkpt>
      <trkpt lat="59.530029986053705" lon="8.971081981435418">
        <ele>574.53125</ele>
        <time>2018-08-12T19:10:41Z</time>
      </trkpt>
      <trkpt lat="59.530021017417312" lon="8.971112994477153">
        <ele>574.5390625</ele>
        <time>2018-08-12T19:10:42Z</time>
      </trkpt>
      <trkpt lat="59.529950022697449" lon="8.97134399972856">
        <ele>574.88671875</ele>
        <time>2018-08-12T19:10:51Z</time>
      </trkpt>
      <trkpt lat="59.529805015772581" lon="8.971650023013353">
        <ele>574.51171875</ele>
        <time>2018-08-12T19:11:00Z</time>
      </trkpt>
      <trkpt lat="59.529630001634359" lon="8.972129970788956">
        <ele>570.58203125</ele>
        <time>2018-08-12T19:11:10Z</time>
      </trkpt>
    </trkseg>
  </trk>

</gpx>